Observation data for Earth on 05/23/2019      Previous  Date  Next       Current Mesonet Observations  Soil Data  Daily Summary Page  Observations in Plain Language
KEA1 230500Z 14015KT 21/12 A2982 RMK A01 T02130121  RH  056%=      5-min Rain = 0
KEA1 230501Z 14016KT 21/12 A2982 RMK A01 T02130122  RH  056%=      5-min Rain = 0
KEA1 230502Z 14014KT 21/12 A2982 RMK A01 T02140123  RH  056%=      5-min Rain = 0
KEA1 230503Z 14015KT 21/12 A2982 RMK A01 T02140124  RH  056%=      5-min Rain = 0
KEA1 230504Z 14016KT 22/13 A2982 RMK A01 T02150125  RH  057%=      5-min Rain = 0
KEA1 230505Z 14017KT 22/13 A2982 RMK A01 T02150126  RH  057%=      5-min Rain = 0
KEA1 230506Z 14015G20KT 22/13 A2982 RMK A01 T02150126  RH  057%=      5-min Rain = 0
KEA1 230507Z 14018KT 22/13 A2982 RMK A01 T02160127  RH  057%=      5-min Rain = 0
KEA1 230508Z 15017KT 22/13 A2982 RMK A01 T02160128  RH  057%=      5-min Rain = 0
KEA1 230509Z 14016KT 22/13 A2982 RMK A01 T02160129  RH  057%=      5-min Rain = 0
KEA1 230510Z 14017KT 22/13 A2982 RMK A01 T02160130  RH  058%=      5-min Rain = 0
KEA1 230511Z 14016KT 22/13 A2982 RMK A01 T02170130  RH  058%=      5-min Rain = 0
KEA1 230512Z 14014KT 22/13 A2982 RMK A01 T02170130  RH  058%=      5-min Rain = 0
KEA1 230513Z 14017KT 22/13 A2982 RMK A01 T02170131  RH  058%=      5-min Rain = 0
KEA1 230514Z 14018G23KT 22/13 A2982 RMK A01 T02160131  RH  058%=      5-min Rain = 0
KEA1 230515Z 14017KT 22/13 A2982 RMK A01 T02170132  RH  059%=      5-min Rain = 0
KEA1 230516Z 14017KT 22/13 A2982 RMK A01 T02170132  RH  058%=      5-min Rain = 0
KEA1 230517Z 15016KT 22/13 A2982 RMK A01 T02170132  RH  059%=      5-min Rain = 0
KEA1 230518Z 14014KT 22/13 A2982 RMK A01 T02170132  RH  059%=      5-min Rain = 0
KEA1 230519Z 14016KT 22/13 A2982 RMK A01 T02160133  RH  059%=      5-min Rain = 0
KEA1 230520Z 14015KT 22/13 A2982 RMK A01 T02150133  RH  059%=      5-min Rain = 0
KEA1 230521Z 14015KT 22/13 A2982 RMK A01 T02150133  RH  059%=      5-min Rain = 0
KEA1 230522Z 14014KT 22/13 A2982 RMK A01 T02150133  RH  060%=      5-min Rain = 0
KEA1 230523Z 14015KT 21/13 A2983 RMK A01 T02140133  RH  060%=      5-min Rain = 0
KEA1 230524Z 14016KT 21/13 A2983 RMK A01 T02140133  RH  060%=      5-min Rain = 0
KEA1 230525Z 14016KT 21/13 A2983 RMK A01 T02140133  RH  060%=      5-min Rain = 0
KEA1 230526Z 14013KT 21/13 A2983 RMK A01 T02140134  RH  060%=      5-min Rain = 0
KEA1 230527Z 14014KT 21/13 A2983 RMK A01 T02140134  RH  060%=      5-min Rain = 0
KEA1 230528Z 14016KT 21/13 A2983 RMK A01 T02130134  RH  061%=      5-min Rain = 0
KEA1 230529Z 14014KT 21/13 A2983 RMK A01 T02130134  RH  061%=      5-min Rain = 0
KEA1 230530Z 14014KT 21/13 A2983 RMK A01 T02130134  RH  061%=      5-min Rain = 0
KEA1 230531Z 14014KT 21/14 A2983 RMK A01 T02130135  RH  061%=      5-min Rain = 0
KEA1 230532Z 14013G18KT 21/14 A2983 RMK A01 T02130135  RH  061%=      5-min Rain = 0
KEA1 230533Z 14014KT 21/14 A2983 RMK A01 T02120136  RH  062%=      5-min Rain = 0
KEA1 230534Z 14013KT 21/14 A2983 RMK A01 T02120136  RH  062%=      5-min Rain = 0
KEA1 230535Z 14014KT 21/14 A2983 RMK A01 T02120136  RH  062%=      5-min Rain = 0
KEA1 230536Z 14014KT 21/14 A2983 RMK A01 T02120137  RH  062%=      5-min Rain = 0
KEA1 230537Z 14016KT 21/14 A2983 RMK A01 T02120138  RH  063%=      5-min Rain = 0
KEA1 230538Z 14015KT 21/14 A2983 RMK A01 T02110138  RH  063%=      5-min Rain = 0
KEA1 230539Z 14013KT 21/14 A2983 RMK A01 T02110138  RH  063%=      5-min Rain = 0
KEA1 230540Z 15014KT 21/14 A2983 RMK A01 T02110139  RH  063%=      5-min Rain = 0
KEA1 230541Z 14015KT 21/14 A2983 RMK A01 T02110139  RH  064%=      5-min Rain = 0
KEA1 230542Z 14015KT 21/14 A2983 RMK A01 T02110140  RH  064%=      5-min Rain = 0
KEA1 230543Z 15014KT 21/14 A2983 RMK A01 T02110141  RH  064%=      5-min Rain = 0
KEA1 230544Z 15013KT 21/14 A2983 RMK A01 T02110141  RH  064%=      5-min Rain = 0
KEA1 230545Z 15015KT 21/14 A2983 RMK A01 T02110142  RH  065%=      5-min Rain = 0
KEA1 230546Z 14015KT 21/14 A2983 RMK A01 T02110143  RH  065%=      5-min Rain = 0
KEA1 230547Z 14016KT 21/14 A2983 RMK A01 T02120144  RH  065%=      5-min Rain = 0
KEA1 230548Z 15015KT 21/14 A2983 RMK A01 T02120144  RH  065%=      5-min Rain = 0
KEA1 230549Z 14015KT 21/15 A2983 RMK A01 T02120145  RH  065%=      5-min Rain = 0
KEA1 230550Z 15014KT 21/15 A2983 RMK A01 T02120146  RH  066%=      5-min Rain = 0
KEA1 230551Z 15013KT 21/15 A2983 RMK A01 T02120146  RH  066%=      5-min Rain = 0
KEA1 230552Z 14014KT 21/15 A2983 RMK A01 T02110146  RH  066%=      5-min Rain = 0
KEA1 230553Z 14012KT 21/15 A2983 RMK A01 T02110147  RH  067%=      5-min Rain = 0
KEA1 230554Z 14014KT 21/15 A2983 RMK A01 T02110147  RH  067%=      5-min Rain = 0
KEA1 230555Z 14013KT 21/15 A2983 RMK A01 T02110148  RH  067%=      5-min Rain = 0
KEA1 230556Z 14014KT 21/15 A2983 RMK A01 T02110148  RH  067%=      5-min Rain = 0
KEA1 230557Z 14015KT 21/15 A2983 RMK A01 T02110149  RH  068%=      5-min Rain = 0
KEA1 230558Z 14015KT 21/15 A2983 RMK A01 T02120150  RH  068%=      5-min Rain = 0
KEA1 230559Z 14014KT 21/15 A2983 RMK A01 T02130150  RH  067%=      5-min Rain = 0
KEA1 230600Z 14012KT 21/15 A2983 RMK A01 T02120150  RH  068%=      5-min Rain = 0
KEA1 230601Z 14014KT 21/15 A2983 RMK A01 T02130151  RH  068%=      5-min Rain = 0
KEA1 230602Z 14014KT 21/15 A2983 RMK A01 T02130151  RH  068%=      5-min Rain = 0
KEA1 230603Z 14015KT 21/15 A2983 RMK A01 T02130152  RH  068%=      5-min Rain = 0
KEA1 230604Z 14015KT 21/15 A2983 RMK A01 T02140153  RH  068%=      5-min Rain = 0
KEA1 230605Z 14017KT 21/15 A2983 RMK A01 T02140153  RH  068%=      5-min Rain = 0
KEA1 230606Z 14015KT 22/15 A2983 RMK A01 T02150154  RH  069%=      5-min Rain = 0
KEA1 230607Z 14014KT 22/15 A2983 RMK A01 T02150154  RH  068%=      5-min Rain = 0
KEA1 230608Z 14015KT 22/16 A2983 RMK A01 T02150155  RH  069%=      5-min Rain = 0
KEA1 230609Z 14017KT 22/16 A2983 RMK A01 T02150156  RH  069%=      5-min Rain = 0
KEA1 230610Z 14015KT 22/16 A2983 RMK A01 T02150156  RH  069%=      5-min Rain = 0
KEA1 230611Z 15015KT 22/16 A2983 RMK A01 T02160156  RH  069%=      5-min Rain = 0
KEA1 230612Z 15015G20KT 22/16 A2983 RMK A01 T02160157  RH  069%=      5-min Rain = 0
KEA1 230613Z 15014KT 22/16 A2983 RMK A01 T02150157  RH  069%=      5-min Rain = 0
KEA1 230614Z 14016KT 22/16 A2983 RMK A01 T02150157  RH  070%=      5-min Rain = 0
KEA1 230615Z 15015G20KT 22/16 A2983 RMK A01 T02150158  RH  070%=      5-min Rain = 0
KEA1 230616Z 14015KT 22/16 A2983 RMK A01 T02150158  RH  070%=      5-min Rain = 0
KEA1 230617Z 14014G19KT 22/16 A2983 RMK A01 T02150158  RH  070%=      5-min Rain = 0
KEA1 230618Z 14016G21KT 22/16 A2983 RMK A01 T02150159  RH  070%=      5-min Rain = 0
KEA1 230619Z 14016KT 22/16 A2983 RMK A01 T02150159  RH  071%=      5-min Rain = 0
KEA1 230620Z 15014KT 22/16 A2983 RMK A01 T02150160  RH  071%=      5-min Rain = 0
KEA1 230621Z 14015KT 22/16 A2983 RMK A01 T02150160  RH  071%=      5-min Rain = 0
KEA1 230622Z 14014KT 22/16 A2984 RMK A01 T02150160  RH  071%=      5-min Rain = 0
KEA1 230623Z 14015KT 22/16 A2984 RMK A01 T02150160  RH  071%=      5-min Rain = 0
KEA1 230624Z 14016KT 22/16 A2984 RMK A01 T02150160  RH  071%=      5-min Rain = 0
KEA1 230625Z 15015KT 22/16 A2984 RMK A01 T02150161  RH  071%=      5-min Rain = 0
KEA1 230626Z 14016KT 21/16 A2984 RMK A01 T02140161  RH  071%=      5-min Rain = 0
KEA1 230627Z 14014KT 21/16 A2984 RMK A01 T02140161  RH  072%=      5-min Rain = 0
KEA1 230628Z 14016KT 21/16 A2984 RMK A01 T02140161  RH  072%=      5-min Rain = 0
KEA1 230629Z 14016KT 21/16 A2984 RMK A01 T02140162  RH  072%=      5-min Rain = 0
KEA1 230630Z 15016KT 21/16 A2984 RMK A01 T02140162  RH  072%=      5-min Rain = 0
KEA1 230631Z 14015KT 21/16 A2984 RMK A01 T02140162  RH  072%=      5-min Rain = 0
KEA1 230632Z 14015KT 21/16 A2984 RMK A01 T02130162  RH  073%=      5-min Rain = 0
KEA1 230633Z 14015KT 21/16 A2984 RMK A01 T02140163  RH  073%=      5-min Rain = 0
KEA1 230634Z 14016KT 21/16 A2984 RMK A01 T02140164  RH  073%=      5-min Rain = 0
KEA1 230635Z 15014KT 21/16 A2984 RMK A01 T02130164  RH  073%=      5-min Rain = 0
KEA1 230636Z 14015G20KT 21/16 A2984 RMK A01 T02140164  RH  073%=      5-min Rain = 0
KEA1 230637Z 14015KT 21/17 A2984 RMK A01 T02130165  RH  074%=      5-min Rain = 0
KEA1 230638Z 14018KT 21/17 A2984 RMK A01 T02130165  RH  074%=      5-min Rain = 0
KEA1 230639Z 14015KT 21/17 A2984 RMK A01 T02140165  RH  074%=      5-min Rain = 0
KEA1 230640Z 14016KT 21/17 A2984 RMK A01 T02130165  RH  074%=      5-min Rain = 0
KEA1 230641Z 14017KT 21/17 A2984 RMK A01 T02130166  RH  074%=      5-min Rain = 0
KEA1 230642Z 14014KT 21/17 A2984 RMK A01 T02130166  RH  074%=      5-min Rain = 0
KEA1 230643Z 14013KT 21/17 A2984 RMK A01 T02130166  RH  074%=      5-min Rain = 0
KEA1 230644Z 14015KT 21/17 A2984 RMK A01 T02130166  RH  075%=      5-min Rain = 0
KEA1 230645Z 15013KT 21/17 A2984 RMK A01 T02120166  RH  075%=      5-min Rain = 0
KEA1 230646Z 15015KT 21/17 A2984 RMK A01 T02120167  RH  075%=      5-min Rain = 0
KEA1 230647Z 15013KT 21/17 A2984 RMK A01 T02120167  RH  076%=      5-min Rain = 0
KEA1 230648Z 14014KT 21/17 A2984 RMK A01 T02120167  RH  076%=      5-min Rain = 0
KEA1 230649Z 14015KT 21/17 A2984 RMK A01 T02110168  RH  076%=      5-min Rain = 0
KEA1 230650Z 15017KT 21/17 A2984 RMK A01 T02110169  RH  076%=      5-min Rain = 0
KEA1 230651Z 14016KT 21/17 A2984 RMK A01 T02120169  RH  076%=      5-min Rain = 0
KEA1 230652Z 15015KT 21/17 A2984 RMK A01 T02130169  RH  076%=      5-min Rain = 0
KEA1 230653Z 14015KT 21/17 A2984 RMK A01 T02130169  RH  076%=      5-min Rain = 0
KEA1 230654Z 15015KT 21/17 A2984 RMK A01 T02120169  RH  076%=      5-min Rain = 0
KEA1 230655Z 14015KT 21/17 A2984 RMK A01 T02120170  RH  077%=      5-min Rain = 0
KEA1 230656Z 14014KT 21/17 A2984 RMK A01 T02120170  RH  077%=      5-min Rain = 0
KEA1 230657Z 14014KT 21/17 A2984 RMK A01 T02110170  RH  077%=      5-min Rain = 0
KEA1 230658Z 14014KT 21/17 A2984 RMK A01 T02110170  RH  077%=      5-min Rain = 0
KEA1 230659Z 14015KT 21/17 A2984 RMK A01 T02110170  RH  078%=      5-min Rain = 0
KEA1 230700Z 14016KT 21/17 A2984 RMK A01 T02110171  RH  078%=      5-min Rain = 0
KEA1 230701Z 15013KT 21/17 A2984 RMK A01 T02110171  RH  078%=      5-min Rain = 0
KEA1 230702Z 14014KT 21/17 A2984 RMK A01 T02110171  RH  078%=      5-min Rain = 0
KEA1 230703Z 14014KT 21/17 A2984 RMK A01 T02110172  RH  078%=      5-min Rain = 0
KEA1 230704Z 15015KT 21/17 A2984 RMK A01 T02110172  RH  078%=      5-min Rain = 0
KEA1 230705Z 15014KT 21/17 A2984 RMK A01 T02110172  RH  078%=      5-min Rain = 0
KEA1 230706Z 14015KT 21/17 A2984 RMK A01 T02100172  RH  079%=      5-min Rain = 0
KEA1 230707Z 14015KT 21/17 A2984 RMK A01 T02100172  RH  079%=      5-min Rain = 0
KEA1 230708Z 14015KT 21/17 A2984 RMK A01 T02100172  RH  079%=      5-min Rain = 0
KEA1 230709Z 14014KT 21/17 A2984 RMK A01 T02100173  RH  079%=      5-min Rain = 0
KEA1 230710Z 14013KT 21/17 A2984 RMK A01 T02100173  RH  079%=      5-min Rain = 0
KEA1 230711Z 14015G20KT 21/17 A2984 RMK A01 T02090173  RH  079%=      5-min Rain = 0
KEA1 230712Z 14015G21KT 21/17 A2984 RMK A01 T02090173  RH  080%=      5-min Rain = 0
KEA1 230713Z 14015KT 21/17 A2984 RMK A01 T02090173  RH  080%=      5-min Rain = 0
KEA1 230714Z 14016KT 21/17 A2984 RMK A01 T02100174  RH  080%=      5-min Rain = 0
KEA1 230715Z 14014KT 21/17 A2985 RMK A01 T02100174  RH  080%=      5-min Rain = 0
KEA1 230716Z 15015KT 21/17 A2985 RMK A01 T02100174  RH  080%=      5-min Rain = 0
KEA1 230717Z 14014KT 21/17 A2985 RMK A01 T02100174  RH  080%=      5-min Rain = 0
KEA1 230718Z 14013KT 21/17 A2985 RMK A01 T02090174  RH  080%=      5-min Rain = 0
KEA1 230719Z 14012KT 21/17 A2985 RMK A01 T02080174  RH  081%=      5-min Rain = 0
KEA1 230720Z 15014KT 21/17 A2985 RMK A01 T02080174  RH  081%=      5-min Rain = 0
KEA1 230721Z 14015KT 21/18 A2985 RMK A01 T02070175  RH  081%=      5-min Rain = 0
KEA1 230722Z 14016KT 21/18 A2985 RMK A01 T02080175  RH  082%=      5-min Rain = 0
KEA1 230723Z 15015KT 21/18 A2985 RMK A01 T02080175  RH  081%=      5-min Rain = 0
KEA1 230724Z 14014KT 21/18 A2984 RMK A01 T02080175  RH  082%=      5-min Rain = 0
KEA1 230725Z 14016KT 21/18 A2984 RMK A01 T02090176  RH  082%=      5-min Rain = 0
KEA1 230726Z 14016KT 21/18 A2984 RMK A01 T02090176  RH  082%=      5-min Rain = 0
KEA1 230727Z 14014KT 21/18 A2984 RMK A01 T02090176  RH  082%=      5-min Rain = 0
KEA1 230728Z 14013KT 21/18 A2984 RMK A01 T02090177  RH  082%=      5-min Rain = 0
KEA1 230729Z 15014KT 21/18 A2984 RMK A01 T02080176  RH  082%=      5-min Rain = 0
KEA1 230730Z 14013KT 21/18 A2984 RMK A01 T02080177  RH  082%=      5-min Rain = 0
KEA1 230731Z 14016KT 21/18 A2984 RMK A01 T02080177  RH  083%=      5-min Rain = 0
KEA1 230732Z 14012KT 21/18 A2984 RMK A01 T02080177  RH  083%=      5-min Rain = 0
KEA1 230733Z 14013KT 21/18 A2985 RMK A01 T02080177  RH  083%=      5-min Rain = 0
KEA1 230734Z 15014KT 21/18 A2984 RMK A01 T02080178  RH  083%=      5-min Rain = 0
KEA1 230735Z 14016KT 21/18 A2984 RMK A01 T02080178  RH  083%=      5-min Rain = 0
KEA1 230736Z 14015KT 21/18 A2985 RMK A01 T02080178  RH  083%=      5-min Rain = 0
KEA1 230737Z 14013KT 21/18 A2984 RMK A01 T02090179  RH  083%=      5-min Rain = 0
KEA1 230738Z 14014KT 21/18 A2984 RMK A01 T02090179  RH  083%=      5-min Rain = 0
KEA1 230739Z 15013KT 21/18 A2984 RMK A01 T02090179  RH  083%=      5-min Rain = 0
KEA1 230740Z 14014KT 21/18 A2984 RMK A01 T02090179  RH  083%=      5-min Rain = 0
KEA1 230741Z 14013KT 21/18 A2985 RMK A01 T02090180  RH  083%=      5-min Rain = 0
KEA1 230742Z 14012KT 21/18 A2985 RMK A01 T02090180  RH  083%=      5-min Rain = 0
KEA1 230743Z 14014KT 21/18 A2985 RMK A01 T02080180  RH  084%=      5-min Rain = 0
KEA1 230744Z 14012KT 21/18 A2985 RMK A01 T02090180  RH  084%=      5-min Rain = 0
KEA1 230745Z 14013KT 21/18 A2985 RMK A01 T02090180  RH  084%=      5-min Rain = 0
KEA1 230746Z 15015KT 21/18 A2985 RMK A01 T02090181  RH  084%=      5-min Rain = 0
KEA1 230747Z 15014KT 21/18 A2985 RMK A01 T02100181  RH  084%=      5-min Rain = 0
KEA1 230748Z 15013KT 21/18 A2985 RMK A01 T02110182  RH  084%=      5-min Rain = 0
KEA1 230749Z 15012KT 21/18 A2985 RMK A01 T02110182  RH  083%=      5-min Rain = 0
KEA1 230750Z 15013KT 21/18 A2985 RMK A01 T02110182  RH  083%=      5-min Rain = 0
KEA1 230751Z 14013KT 21/18 A2985 RMK A01 T02120183  RH  083%=      5-min Rain = 0
KEA1 230752Z 15014KT 21/18 A2985 RMK A01 T02120183  RH  083%=      5-min Rain = 0
KEA1 230753Z 14012KT 21/18 A2985 RMK A01 T02130183  RH  083%=      5-min Rain = 0
KEA1 230754Z 15016KT 21/18 A2985 RMK A01 T02140184  RH  083%=      5-min Rain = 0
KEA1 230755Z 14015KT 21/18 A2985 RMK A01 T02140184  RH  083%=      5-min Rain = 0
KEA1 230756Z 14014KT 22/19 A2985 RMK A01 T02150185  RH  083%=      5-min Rain = 0
KEA1 230757Z 15014KT 22/19 A2985 RMK A01 T02160185  RH  082%=      5-min Rain = 0
KEA1 230758Z 15014KT 22/19 A2985 RMK A01 T02160185  RH  083%=      5-min Rain = 0
KEA1 230759Z 15013KT 22/19 A2985 RMK A01 T02160185  RH  082%=      5-min Rain = 0
KEA1 230800Z 14014KT 22/19 A2985 RMK A01 T02160185  RH  082%=      5-min Rain = 0
KEA1 230801Z 14014KT 22/19 A2985 RMK A01 T02170185  RH  082%=      5-min Rain = 0
KEA1 230802Z 14015KT 22/19 A2985 RMK A01 T02170185  RH  082%=      5-min Rain = 0
KEA1 230803Z 15016KT 22/19 A2985 RMK A01 T02170186  RH  082%=      5-min Rain = 0
KEA1 230804Z 15016KT 22/19 A2985 RMK A01 T02180186  RH  082%=      5-min Rain = 0
KEA1 230805Z 15014KT 22/19 A2985 RMK A01 T02180186  RH  082%=      5-min Rain = 0
KEA1 230806Z 14016KT 22/19 A2985 RMK A01 T02180186  RH  082%=      5-min Rain = 0
KEA1 230807Z 14016KT 22/19 A2985 RMK A01 T02190187  RH  082%=      5-min Rain = 0
KEA1 230808Z 14015KT 22/19 A2985 RMK A01 T02190187  RH  082%=      5-min Rain = 0
KEA1 230809Z 15015KT 22/19 A2985 RMK A01 T02190187  RH  082%=      5-min Rain = 0
KEA1 230810Z 15015KT 22/19 A2985 RMK A01 T02190187  RH  082%=      5-min Rain = 0
KEA1 230811Z 15014KT 22/19 A2985 RMK A01 T02190187  RH  082%=      5-min Rain = 0
KEA1 230812Z 15013KT 22/19 A2985 RMK A01 T02190187  RH  082%=      5-min Rain = 0
KEA1 230813Z 15013KT 22/19 A2985 RMK A01 T02190188  RH  082%=      5-min Rain = 0
KEA1 230814Z 15015KT 22/19 A2985 RMK A01 T02190188  RH  082%=      5-min Rain = 0
KEA1 230815Z 15015KT 22/19 A2985 RMK A01 T02200188  RH  082%=      5-min Rain = 0
KEA1 230816Z 14013KT 22/19 A2985 RMK A01 T02190188  RH  082%=      5-min Rain = 0
KEA1 230817Z 15013KT 22/19 A2985 RMK A01 T02190188  RH  082%=      5-min Rain = 0
KEA1 230818Z 15015KT 22/19 A2985 RMK A01 T02200188  RH  082%=      5-min Rain = 0
KEA1 230819Z 15013KT 22/19 A2985 RMK A01 T02200188  RH  082%=      5-min Rain = 0
KEA1 230820Z 15015KT 22/19 A2985 RMK A01 T02200188  RH  082%=      5-min Rain = 0
KEA1 230821Z 15013KT 22/19 A2985 RMK A01 T02200188  RH  082%=      5-min Rain = 0
KEA1 230822Z 15014KT 22/19 A2985 RMK A01 T02200188  RH  082%=      5-min Rain = 0
KEA1 230823Z 15015KT 22/19 A2985 RMK A01 T02200189  RH  082%=      5-min Rain = 0
KEA1 230824Z 15013KT 22/19 A2985 RMK A01 T02200189  RH  082%=      5-min Rain = 0
KEA1 230825Z 15014KT 22/19 A2985 RMK A01 T02200189  RH  082%=      5-min Rain = 0
KEA1 230826Z 15013KT 22/19 A2985 RMK A01 T02210189  RH  082%=      5-min Rain = 0
KEA1 230827Z 15012KT 22/19 A2985 RMK A01 T02210190  RH  082%=      5-min Rain = 0
KEA1 230828Z 15015KT 22/19 A2985 RMK A01 T02210190  RH  082%=      5-min Rain = 0
KEA1 230829Z 15016KT 22/19 A2985 RMK A01 T02210190  RH  082%=      5-min Rain = 0
KEA1 230830Z 16016KT 22/19 A2985 RMK A01 T02210190  RH  082%=      5-min Rain = 0
KEA1 230831Z 15013KT 22/19 A2986 RMK A01 T02210190  RH  082%=      5-min Rain = 0
KEA1 230832Z 15015KT 22/19 A2986 RMK A01 T02210190  RH  082%=      5-min Rain = 0
KEA1 230833Z 15015KT 22/19 A2986 RMK A01 T02210190  RH  082%=      5-min Rain = 0
KEA1 230834Z 15015KT 22/19 A2985 RMK A01 T02220190  RH  082%=      5-min Rain = 0
KEA1 230835Z 15013KT 22/19 A2986 RMK A01 T02220190  RH  082%=      5-min Rain = 0
KEA1 230836Z 15015KT 22/19 A2986 RMK A01 T02220190  RH  082%=      5-min Rain = 0
KEA1 230837Z 16015KT 22/19 A2986 RMK A01 T02220191  RH  082%=      5-min Rain = 0
KEA1 230838Z 15014KT 22/19 A2986 RMK A01 T02220190  RH  082%=      5-min Rain = 0
KEA1 230839Z 16012G17KT 22/19 A2986 RMK A01 T02220191  RH  082%=      5-min Rain = 0
KEA1 230840Z 15010KT 22/19 A2986 RMK A01 T02220191  RH  083%=      5-min Rain = 0
KEA1 230841Z 16012KT 22/19 A2986 RMK A01 T02210191  RH  083%=      5-min Rain = 0
KEA1 230842Z 15012KT 22/19 A2986 RMK A01 T02210190  RH  083%=      5-min Rain = 0
KEA1 230843Z 15015KT 22/19 A2986 RMK A01 T02210191  RH  083%=      5-min Rain = 0
KEA1 230844Z 16014KT 22/19 A2986 RMK A01 T02210191  RH  083%=      5-min Rain = 0
KEA1 230845Z 16015KT 22/19 A2986 RMK A01 T02210191  RH  083%=      5-min Rain = 0
KEA1 230846Z 15016KT 22/19 A2986 RMK A01 T02210190  RH  083%=      5-min Rain = 0
KEA1 230847Z 15015KT 22/19 A2986 RMK A01 T02220191  RH  083%=      5-min Rain = 0
KEA1 230848Z 16013KT 22/19 A2986 RMK A01 T02220191  RH  083%=      5-min Rain = 0
KEA1 230849Z 15014KT 22/19 A2986 RMK A01 T02220191  RH  083%=      5-min Rain = 0
KEA1 230850Z 16015KT 22/19 A2986 RMK A01 T02220191  RH  083%=      5-min Rain = 0
KEA1 230851Z 16014KT 22/19 A2986 RMK A01 T02220191  RH  083%=      5-min Rain = 0
KEA1 230852Z 16012KT 22/19 A2986 RMK A01 T02220191  RH  083%=      5-min Rain = 0
KEA1 230853Z 15014KT 22/19 A2987 RMK A01 T02220191  RH  083%=      5-min Rain = 0
KEA1 230854Z 16012KT 22/19 A2987 RMK A01 T02220192  RH  083%=      5-min Rain = 0
KEA1 230855Z 16013KT 22/19 A2987 RMK A01 T02220191  RH  083%=      5-min Rain = 0
KEA1 230856Z 16011KT 22/19 A2987 RMK A01 T02210191  RH  083%=      5-min Rain = 0
KEA1 230857Z 16011KT 22/19 A2987 RMK A01 T02210191  RH  083%=      5-min Rain = 0
KEA1 230858Z 15010KT 22/19 A2987 RMK A01 T02210191  RH  083%=      5-min Rain = 0
KEA1 230859Z 16011KT 22/19 A2987 RMK A01 T02210191  RH  083%=      5-min Rain = 0
KEA1 230900Z 15012KT 22/19 A2987 RMK A01 T02210191  RH  083%=      5-min Rain = 0
KEA1 230901Z 15010KT 22/19 A2987 RMK A01 T02210191  RH  083%=      5-min Rain = 0
KEA1 230902Z 15010KT 22/19 A2987 RMK A01 T02210191  RH  083%=      5-min Rain = 0
KEA1 230903Z 15011KT 22/19 A2987 RMK A01 T02200191  RH  083%=      5-min Rain = 0
KEA1 230904Z 15011KT 22/19 A2987 RMK A01 T02200191  RH  083%=      5-min Rain = 0
KEA1 230905Z 14009KT 22/19 A2987 RMK A01 T02200191  RH  083%=      5-min Rain = 0
KEA1 230906Z 15010KT 22/19 A2987 RMK A01 T02200191  RH  083%=      5-min Rain = 0
KEA1 230907Z 15013KT 22/19 A2987 RMK A01 T02200190  RH  083%=      5-min Rain = 0
KEA1 230908Z 15011KT 22/19 A2987 RMK A01 T02200190  RH  083%=      5-min Rain = 0
KEA1 230909Z 15012KT 22/19 A2987 RMK A01 T02200190  RH  083%=      5-min Rain = 0
KEA1 230910Z 15010KT 22/19 A2987 RMK A01 T02200190  RH  083%=      5-min Rain = 0
KEA1 230911Z 15012KT 22/19 A2987 RMK A01 T02190190  RH  083%=      5-min Rain = 0
KEA1 230912Z 15013KT 22/19 A2987 RMK A01 T02190190  RH  084%=      5-min Rain = 0
KEA1 230913Z 15011KT 22/19 A2987 RMK A01 T02190190  RH  084%=      5-min Rain = 0
KEA1 230914Z 14011KT 22/19 A2987 RMK A01 T02190190  RH  084%=      5-min Rain = 0
KEA1 230915Z 15012KT 22/19 A2987 RMK A01 T02190190  RH  084%=      5-min Rain = 0
KEA1 230916Z 15012KT 22/19 A2987 RMK A01 T02190190  RH  084%=      5-min Rain = 0
KEA1 230917Z 14011KT 22/19 A2987 RMK A01 T02190190  RH  084%=      5-min Rain = 0
KEA1 230918Z 14010KT 22/19 A2987 RMK A01 T02190190  RH  084%=      5-min Rain = 0
KEA1 230919Z 15011KT 22/19 A2987 RMK A01 T02180190  RH  084%=      5-min Rain = 0
KEA1 230920Z 14011KT 22/19 A2987 RMK A01 T02180190  RH  084%=      5-min Rain = 0
KEA1 230921Z 14010KT 22/19 A2987 RMK A01 T02180190  RH  084%=      5-min Rain = 0
KEA1 230922Z 15011KT 22/19 A2987 RMK A01 T02180190  RH  084%=      5-min Rain = 0
KEA1 230923Z 14012KT 22/19 A2987 RMK A01 T02180190  RH  084%=      5-min Rain = 0
KEA1 230924Z 14013KT 22/19 A2987 RMK A01 T02180190  RH  084%=      5-min Rain = 0
KEA1 230925Z 14010KT 22/19 A2987 RMK A01 T02180190  RH  084%=      5-min Rain = 0
KEA1 230926Z 14011KT 22/19 A2987 RMK A01 T02180190  RH  084%=      5-min Rain = 0
KEA1 230927Z 14013KT 22/19 A2987 RMK A01 T02180191  RH  084%=      5-min Rain = 0
KEA1 230928Z 14011KT 22/19 A2987 RMK A01 T02180190  RH  084%=      5-min Rain = 0
KEA1 230929Z 14014KT 22/19 A2987 RMK A01 T02180190  RH  084%=      5-min Rain = 0
KEA1 230930Z 14013KT 22/19 A2987 RMK A01 T02180191  RH  084%=      5-min Rain = 0
KEA1 230931Z 14013KT 22/19 A2987 RMK A01 T02180190  RH  084%=      5-min Rain = 0
KEA1 230932Z 14013KT 22/19 A2987 RMK A01 T02180190  RH  084%=      5-min Rain = 0
KEA1 230933Z 13011KT 22/19 A2987 RMK A01 T02180190  RH  084%=      5-min Rain = 0
KEA1 230934Z 14012KT 22/19 A2987 RMK A01 T02170190  RH  085%=      5-min Rain = 0
KEA1 230935Z 13010KT 22/19 A2987 RMK A01 T02170190  RH  085%=      5-min Rain = 0
KEA1 230936Z 13012KT 22/19 A2987 RMK A01 T02170191  RH  085%=      5-min Rain = 0
KEA1 230937Z 13013KT 22/19 A2987 RMK A01 T02170191  RH  085%=      5-min Rain = 0
KEA1 230938Z 14011KT 22/19 A2987 RMK A01 T02170191  RH  085%=      5-min Rain = 0
KEA1 230939Z 14011KT 22/19 A2987 RMK A01 T02170190  RH  085%=      5-min Rain = 0
KEA1 230940Z 14012KT 22/19 A2987 RMK A01 T02170190  RH  085%=      5-min Rain = 0
KEA1 230941Z 14012KT 22/19 A2987 RMK A01 T02160190  RH  085%=      5-min Rain = 0
KEA1 230942Z 14010KT 22/19 A2987 RMK A01 T02160190  RH  085%=      5-min Rain = 0
KEA1 230943Z 14009KT 22/19 A2987 RMK A01 T02160191  RH  085%=      5-min Rain = 0
KEA1 230944Z 14012KT 22/19 A2987 RMK A01 T02160191  RH  085%=      5-min Rain = 0
KEA1 230945Z 14014KT 22/19 A2987 RMK A01 T02160191  RH  085%=      5-min Rain = 0
KEA1 230946Z 14013KT 22/19 A2987 RMK A01 T02160191  RH  085%=      5-min Rain = 0
KEA1 230947Z 14013KT 22/19 A2987 RMK A01 T02160190  RH  085%=      5-min Rain = 0
KEA1 230948Z 14013KT 22/19 A2987 RMK A01 T02160190  RH  085%=      5-min Rain = 0
KEA1 230949Z 14011KT 22/19 A2987 RMK A01 T02160190  RH  085%=      5-min Rain = 0
KEA1 230950Z 14012KT 22/19 A2987 RMK A01 T02160190  RH  085%=      5-min Rain = 0
KEA1 230951Z 14013KT 22/19 A2987 RMK A01 T02160190  RH  085%=      5-min Rain = 0
KEA1 230952Z 13012KT 22/19 A2987 RMK A01 T02160190  RH  086%=      5-min Rain = 0
KEA1 230953Z 14013KT 22/19 A2987 RMK A01 T02160191  RH  086%=      5-min Rain = 0
KEA1 230954Z 14014KT 22/19 A2987 RMK A01 T02160191  RH  086%=      5-min Rain = 0
KEA1 230955Z 14012KT 22/19 A2987 RMK A01 T02160191  RH  086%=      5-min Rain = 0
KEA1 230956Z 14011KT 22/19 A2987 RMK A01 T02160191  RH  086%=      5-min Rain = 0
KEA1 230957Z 14010KT 22/19 A2987 RMK A01 T02160191  RH  086%=      5-min Rain = 0
KEA1 230958Z 14010KT 22/19 A2987 RMK A01 T02160191  RH  086%=      5-min Rain = 0
KEA1 230959Z 14013KT 22/19 A2987 RMK A01 T02150191  RH  086%=      5-min Rain = 0
KEA1 231000Z 14012KT 22/19 A2987 RMK A01 T02150191  RH  086%=      5-min Rain = 0
KEA1 231001Z 15011KT 22/19 A2987 RMK A01 T02150191  RH  086%=      5-min Rain = 0
KEA1 231002Z 14011KT 22/19 A2987 RMK A01 T02150191  RH  086%=      5-min Rain = 0
KEA1 231003Z 14010KT 22/19 A2987 RMK A01 T02150191  RH  086%=      5-min Rain = 0
KEA1 231004Z 14010KT 22/19 A2987 RMK A01 T02150191  RH  086%=      5-min Rain = 0
KEA1 231005Z 14010KT 22/19 A2987 RMK A01 T02150191  RH  086%=      5-min Rain = 0
KEA1 231006Z 14011KT 22/19 A2987 RMK A01 T02150191  RH  086%=      5-min Rain = 0
KEA1 231007Z 14011KT 22/19 A2987 RMK A01 T02160192  RH  086%=      5-min Rain = 0
KEA1 231008Z 14010KT 22/19 A2987 RMK A01 T02150192  RH  086%=      5-min Rain = 0
KEA1 231009Z 14012KT 22/19 A2987 RMK A01 T02150191  RH  086%=      5-min Rain = 0
KEA1 231010Z 14013KT 22/19 A2987 RMK A01 T02150191  RH  086%=      5-min Rain = 0
KEA1 231011Z 14013KT 22/19 A2987 RMK A01 T02150191  RH  086%=      5-min Rain = 0
KEA1 231012Z 14012KT 22/19 A2987 RMK A01 T02150191  RH  086%=      5-min Rain = 0
KEA1 231013Z 14013KT 22/19 A2987 RMK A01 T02150191  RH  086%=      5-min Rain = 0
KEA1 231014Z 14010KT 22/19 A2987 RMK A01 T02150191  RH  086%=      5-min Rain = 0
KEA1 231015Z 13012KT 22/19 A2987 RMK A01 T02150191  RH  086%=      5-min Rain = 0
KEA1 231016Z 13012KT 22/19 A2987 RMK A01 T02150191  RH  086%=      5-min Rain = 0
KEA1 231017Z 14012KT 22/19 A2987 RMK A01 T02150192  RH  086%=      5-min Rain = 0
KEA1 231018Z 13012KT 22/19 A2987 RMK A01 T02160192  RH  086%=      5-min Rain = 0
KEA1 231019Z 13011KT 22/19 A2987 RMK A01 T02150192  RH  086%=      5-min Rain = 0
KEA1 231020Z 13011KT 22/19 A2987 RMK A01 T02150191  RH  086%=      5-min Rain = 0
KEA1 231021Z 13008KT 22/19 A2987 RMK A01 T02150192  RH  086%=      5-min Rain = 0
KEA1 231022Z 12009KT 22/19 A2987 RMK A01 T02150192  RH  086%=      5-min Rain = 0
KEA1 231023Z 13009KT 22/19 A2987 RMK A01 T02150192  RH  087%=      5-min Rain = 0
KEA1 231024Z 12009KT 22/19 A2987 RMK A01 T02150192  RH  087%=      5-min Rain = 0
KEA1 231025Z 12012KT 22/19 A2987 RMK A01 T02150192  RH  087%=      5-min Rain = 0
KEA1 231026Z 13012KT 21/19 A2987 RMK A01 T02140191  RH  087%=      5-min Rain = 0
KEA1 231027Z 12010KT 21/19 A2987 RMK A01 T02140192  RH  087%=      5-min Rain = 0
KEA1 231028Z 12011KT 21/19 A2987 RMK A01 T02140192  RH  087%=      5-min Rain = 0
KEA1 231029Z 13012KT 21/19 A2987 RMK A01 T02140192  RH  087%=      5-min Rain = 0
KEA1 231030Z 12011KT 21/19 A2987 RMK A01 T02140192  RH  087%=      5-min Rain = 0
KEA1 231031Z 12010KT 21/19 A2987 RMK A01 T02140192  RH  087%=      5-min Rain = 0
KEA1 231032Z 12012KT 21/19 A2987 RMK A01 T02140192  RH  087%=      5-min Rain = 0
KEA1 231033Z 12013KT 22/19 A2987 RMK A01 T02150192  RH  087%=      5-min Rain = 0
KEA1 231034Z 12012KT 21/19 A2987 RMK A01 T02140192  RH  087%=      5-min Rain = 0
KEA1 231035Z 12011KT 21/19 A2987 RMK A01 T02140192  RH  087%=      5-min Rain = 0
KEA1 231036Z 12012KT 21/19 A2987 RMK A01 T02140192  RH  087%=      5-min Rain = 0
KEA1 231037Z 12011KT 22/19 A2987 RMK A01 T02150192  RH  087%=      5-min Rain = 0
KEA1 231038Z 12010KT 21/19 A2987 RMK A01 T02140192  RH  087%=      5-min Rain = 0
KEA1 231039Z 12011KT 21/19 A2987 RMK A01 T02140192  RH  087%=      5-min Rain = 0
KEA1 231040Z 12010KT 21/19 A2987 RMK A01 T02140192  RH  087%=      5-min Rain = 0
KEA1 231041Z 12010KT 21/19 A2987 RMK A01 T02140192  RH  087%=      5-min Rain = 0
KEA1 231042Z 12009KT 21/19 A2987 RMK A01 T02140192  RH  087%=      5-min Rain = 0
KEA1 231043Z 12009KT 21/19 A2987 RMK A01 T02140192  RH  087%=      5-min Rain = 0
KEA1 231044Z 12011KT 21/19 A2987 RMK A01 T02140192  RH  087%=      5-min Rain = 0
KEA1 231045Z 12011KT 21/19 A2987 RMK A01 T02140192  RH  087%=      5-min Rain = 0
KEA1 231046Z 13011KT 21/19 A2987 RMK A01 T02140193  RH  088%=      5-min Rain = 0
KEA1 231047Z 12011KT 21/19 A2987 RMK A01 T02140192  RH  088%=      5-min Rain = 0
KEA1 231048Z 12009KT 21/19 A2987 RMK A01 T02140192  RH  088%=      5-min Rain = 0
KEA1 231049Z 12010KT 21/19 A2987 RMK A01 T02140193  RH  088%=      5-min Rain = 0
KEA1 231050Z 12011KT 21/19 A2987 RMK A01 T02140193  RH  088%=      5-min Rain = 0
KEA1 231051Z 12010KT 21/19 A2987 RMK A01 T02140193  RH  088%=      5-min Rain = 0
KEA1 231052Z 12011KT 21/19 A2987 RMK A01 T02140193  RH  088%=      5-min Rain = 0
KEA1 231053Z 12012KT 21/19 A2987 RMK A01 T02140193  RH  088%=      5-min Rain = 0
KEA1 231054Z 12010KT 21/19 A2987 RMK A01 T02140193  RH  088%=      5-min Rain = 0
KEA1 231055Z 12009KT 21/19 A2987 RMK A01 T02140193  RH  088%=      5-min Rain = 0
KEA1 231056Z 12009KT 21/19 A2987 RMK A01 T02140193  RH  088%=      5-min Rain = 0
KEA1 231057Z 12009KT 21/19 A2987 RMK A01 T02140193  RH  088%=      5-min Rain = 0
KEA1 231058Z 12009KT 21/19 A2987 RMK A01 T02140193  RH  088%=      5-min Rain = 0
KEA1 231059Z 12010KT 21/19 A2987 RMK A01 T02140193  RH  088%=      5-min Rain = 0
KEA1 231100Z 12012KT 21/19 A2987 RMK A01 T02140193  RH  088%=      5-min Rain = 0
KEA1 231101Z 12012KT 21/19 A2987 RMK A01 T02140193  RH  088%=      5-min Rain = 0
KEA1 231102Z 12011KT 21/19 A2987 RMK A01 T02140193  RH  088%=      5-min Rain = 0
KEA1 231103Z 12011KT 21/19 A2987 RMK A01 T02140193  RH  088%=      5-min Rain = 0
KEA1 231104Z 12010KT 21/19 A2987 RMK A01 T02140193  RH  088%=      5-min Rain = 0
KEA1 231105Z 12008KT 21/19 A2987 RMK A01 T02140193  RH  088%=      5-min Rain = 0
KEA1 231106Z 12007KT 21/19 A2987 RMK A01 T02140193  RH  088%=      5-min Rain = 0
KEA1 231107Z 12008KT 21/19 A2987 RMK A01 T02140193  RH  088%=      5-min Rain = 0
KEA1 231108Z 11008KT 21/19 A2987 RMK A01 T02140193  RH  088%=      5-min Rain = 0
KEA1 231109Z 12009KT 21/19 A2987 RMK A01 T02140193  RH  088%=      5-min Rain = 0
KEA1 231110Z 11009KT 21/19 A2987 RMK A01 T02140194  RH  088%=      5-min Rain = 0
KEA1 231111Z 12012KT 21/19 A2987 RMK A01 T02140194  RH  088%=      5-min Rain = 0
KEA1 231112Z 12010KT 21/19 A2987 RMK A01 T02140193  RH  088%=      5-min Rain = 0
KEA1 231113Z 12011KT 21/19 A2987 RMK A01 T02140193  RH  088%=      5-min Rain = 0
KEA1 231114Z 11009KT 21/19 A2987 RMK A01 T02140193  RH  088%=      5-min Rain = 0
KEA1 231115Z 12010KT 21/19 A2987 RMK A01 T02140193  RH  088%=      5-min Rain = 0
KEA1 231116Z 12009KT 21/19 A2987 RMK A01 T02140194  RH  088%=      5-min Rain = 0
KEA1 231117Z 12009KT 21/19 A2987 RMK A01 T02140193  RH  088%=      5-min Rain = 0
KEA1 231118Z 12009KT 21/19 A2987 RMK A01 T02140193  RH  088%=      5-min Rain = 0
KEA1 231119Z 12008KT 21/19 A2987 RMK A01 T02140193  RH  088%=      5-min Rain = 0
KEA1 231120Z 12010KT 21/19 A2987 RMK A01 T02140193  RH  088%=      5-min Rain = 0
KEA1 231121Z 11008KT 21/19 A2987 RMK A01 T02140193  RH  088%=      5-min Rain = 0
KEA1 231122Z 11007KT 21/19 A2987 RMK A01 T02140193  RH  088%=      5-min Rain = 0
KEA1 231123Z 12008KT 21/19 A2987 RMK A01 T02140193  RH  088%=      5-min Rain = 0
KEA1 231124Z 12008KT 21/19 A2987 RMK A01 T02140194  RH  088%=      5-min Rain = 0
KEA1 231125Z 12007KT 21/19 A2987 RMK A01 T02140194  RH  088%=      5-min Rain = 0
KEA1 231126Z 12007KT 21/19 A2987 RMK A01 T02140194  RH  088%=      5-min Rain = 0
KEA1 231127Z 12007KT 21/19 A2987 RMK A01 T02140194  RH  088%=      5-min Rain = 0
KEA1 231128Z 12007KT 21/19 A2987 RMK A01 T02140194  RH  088%=      5-min Rain = 0
KEA1 231129Z 11007KT 21/19 A2987 RMK A01 T02140194  RH  088%=      5-min Rain = 0
KEA1 231130Z 12007KT 21/19 A2987 RMK A01 T02140194  RH  088%=      5-min Rain = 0
KEA1 231131Z 10007KT 21/19 A2987 RMK A01 T02140194  RH  088%=      5-min Rain = 0
KEA1 231132Z 12007KT 21/19 A2987 RMK A01 T02140194  RH  089%=      5-min Rain = 0
KEA1 231133Z 12007KT 21/20 A2987 RMK A01 T02140195  RH  089%=      5-min Rain = 0
KEA1 231134Z 11005KT 21/19 A2987 RMK A01 T02140194  RH  089%=      5-min Rain = 0
KEA1 231135Z 12007KT 21/20 A2987 RMK A01 T02140195  RH  089%=      5-min Rain = 0
KEA1 231136Z 13010KT 21/20 A2987 RMK A01 T02140195  RH  089%=      5-min Rain = 0
KEA1 231137Z 12011KT 21/20 A2987 RMK A01 T02140195  RH  089%=      5-min Rain = 0
KEA1 231138Z 11009KT 22/20 A2987 RMK A01 T02150195  RH  088%=      5-min Rain = 0
KEA1 231139Z 12009KT 22/20 A2987 RMK A01 T02150195  RH  088%=      5-min Rain = 0
KEA1 231140Z 12007KT 22/19 A2987 RMK A01 T02150194  RH  088%=      5-min Rain = 0
KEA1 231141Z 12008KT 22/20 A2987 RMK A01 T02150195  RH  088%=      5-min Rain = 0
KEA1 231142Z 12007KT 22/20 A2987 RMK A01 T02150195  RH  088%=      5-min Rain = 0
KEA1 231143Z 12005KT 22/20 A2987 RMK A01 T02150195  RH  088%=      5-min Rain = 0
KEA1 231144Z 11005KT 22/20 A2987 RMK A01 T02150195  RH  088%=      5-min Rain = 0
KEA1 231145Z 11006KT 21/20 A2987 RMK A01 T02140195  RH  089%=      5-min Rain = 0
KEA1 231146Z 11006KT 21/20 A2987 RMK A01 T02140195  RH  089%=      5-min Rain = 0
KEA1 231147Z 11007KT 21/20 A2987 RMK A01 T02140195  RH  089%=      5-min Rain = 0
KEA1 231148Z 11005KT 21/20 A2987 RMK A01 T02140195  RH  089%=      5-min Rain = 0
KEA1 231149Z 12006KT 21/20 A2987 RMK A01 T02140195  RH  089%=      5-min Rain = 0
KEA1 231150Z 12006KT 21/20 A2987 RMK A01 T02140195  RH  089%=      5-min Rain = 0
KEA1 231151Z 13006KT 21/20 A2987 RMK A01 T02140195  RH  089%=      5-min Rain = 0
KEA1 231152Z 13005KT 21/20 A2987 RMK A01 T02140195  RH  089%=      5-min Rain = 0
KEA1 231153Z 13006KT 21/20 A2987 RMK A01 T02140195  RH  089%=      5-min Rain = 0
KEA1 231154Z 13008KT 21/20 A2987 RMK A01 T02140195  RH  089%=      5-min Rain = 0
KEA1 231155Z 13007KT 21/20 A2987 RMK A01 T02140195  RH  089%=      5-min Rain = 0
KEA1 231156Z 12007KT 21/20 A2987 RMK A01 T02140196  RH  089%=      5-min Rain = 0
KEA1 231157Z 13009KT 22/20 A2987 RMK A01 T02150196  RH  089%=      5-min Rain = 0
KEA1 231158Z 12008KT 22/20 A2987 RMK A01 T02150196  RH  089%=      5-min Rain = 0
KEA1 231159Z 13009KT 22/20 A2987 RMK A01 T02150196  RH  089%=      5-min Rain = 0
KEA1 231200Z 12010KT 22/20 A2987 RMK A01 T02160196  RH  089%=      5-min Rain = 0
KEA1 231201Z 13009KT 22/20 A2987 RMK A01 T02160197  RH  089%=      5-min Rain = 0
KEA1 231202Z 13009KT 22/20 A2987 RMK A01 T02160196  RH  089%=      5-min Rain = 0
KEA1 231203Z 12008KT 22/20 A2987 RMK A01 T02160196  RH  089%=      5-min Rain = 0
KEA1 231204Z 13009KT 22/20 A2987 RMK A01 T02160197  RH  089%=      5-min Rain = 0
KEA1 231205Z 11010KT 22/20 A2987 RMK A01 T02160196  RH  088%=      5-min Rain = 0
KEA1 231206Z 12011KT 22/20 A2987 RMK A01 T02160196  RH  088%=      5-min Rain = 0
KEA1 231207Z 12009KT 22/20 A2987 RMK A01 T02160196  RH  088%=      5-min Rain = 0
KEA1 231208Z 13010KT 22/20 A2987 RMK A01 T02160196  RH  089%=      5-min Rain = 0
KEA1 231209Z 13009KT 22/20 A2988 RMK A01 T02160197  RH  089%=      5-min Rain = 0
KEA1 231210Z 12011KT 22/20 A2987 RMK A01 T02160197  RH  089%=      5-min Rain = 0
KEA1 231211Z 13012KT 22/20 A2987 RMK A01 T02170197  RH  089%=      5-min Rain = 0
KEA1 231212Z 13012KT 22/20 A2987 RMK A01 T02170197  RH  089%=      5-min Rain = 0
KEA1 231213Z 13010KT 22/20 A2987 RMK A01 T02170198  RH  089%=      5-min Rain = 0
KEA1 231214Z 12011KT 22/20 A2987 RMK A01 T02170198  RH  089%=      5-min Rain = 0
KEA1 231215Z 13009KT 22/20 A2987 RMK A01 T02170198  RH  089%=      5-min Rain = 0
KEA1 231216Z 13012KT 22/20 A2987 RMK A01 T02170197  RH  089%=      5-min Rain = 0
KEA1 231217Z 13012KT 22/20 A2987 RMK A01 T02170198  RH  089%=      5-min Rain = 0
KEA1 231218Z 13011KT 22/20 A2987 RMK A01 T02170198  RH  089%=      5-min Rain = 0
KEA1 231219Z 13013KT 22/20 A2987 RMK A01 T02170198  RH  089%=      5-min Rain = 0
KEA1 231220Z 14012KT 22/20 A2987 RMK A01 T02170198  RH  089%=      5-min Rain = 0
KEA1 231221Z 14013KT 22/20 A2988 RMK A01 T02180198  RH  089%=      5-min Rain = 0
KEA1 231222Z 13011KT 22/20 A2988 RMK A01 T02170198  RH  089%=      5-min Rain = 0
KEA1 231223Z 13012KT 22/20 A2987 RMK A01 T02180198  RH  089%=      5-min Rain = 0
KEA1 231224Z 13012KT 22/20 A2988 RMK A01 T02180198  RH  089%=      5-min Rain = 0
KEA1 231225Z 13015KT 22/20 A2987 RMK A01 T02180198  RH  089%=      5-min Rain = 0
KEA1 231226Z 14013KT 22/20 A2987 RMK A01 T02180198  RH  088%=      5-min Rain = 0
KEA1 231227Z 13013KT 22/20 A2987 RMK A01 T02180198  RH  088%=      5-min Rain = 0
KEA1 231228Z 13011KT 22/20 A2987 RMK A01 T02190198  RH  088%=      5-min Rain = 0
KEA1 231229Z 13014KT 22/20 A2987 RMK A01 T02190199  RH  088%=      5-min Rain = 0
KEA1 231230Z 14013G19KT 22/20 A2987 RMK A01 T02190199  RH  088%=      5-min Rain = 0
KEA1 231231Z 14013KT 22/20 A2987 RMK A01 T02190198  RH  088%=      5-min Rain = 0
KEA1 231232Z 13013KT 22/20 A2987 RMK A01 T02190199  RH  088%=      5-min Rain = 0
KEA1 231233Z 13014KT 22/20 A2987 RMK A01 T02200199  RH  088%=      5-min Rain = 0
KEA1 231234Z 13013KT 22/20 A2987 RMK A01 T02190198  RH  088%=      5-min Rain = 0
KEA1 231235Z 14015KT 22/20 A2987 RMK A01 T02190198  RH  088%=      5-min Rain = 0
KEA1 231236Z 14016KT 22/20 A2987 RMK A01 T02190198  RH  088%=      5-min Rain = 0
KEA1 231237Z 14014KT 22/20 A2987 RMK A01 T02200198  RH  088%=      5-min Rain = 0
KEA1 231238Z 14014KT 22/20 A2987 RMK A01 T02200198  RH  088%=      5-min Rain = 0
KEA1 231239Z 13012KT 22/20 A2987 RMK A01 T02200199  RH  088%=      5-min Rain = 0
KEA1 231240Z 13014KT 22/20 A2987 RMK A01 T02200198  RH  087%=      5-min Rain = 0
KEA1 231241Z 14011G16KT 22/20 A2987 RMK A01 T02200198  RH  087%=      5-min Rain = 0
KEA1 231242Z 14016KT 22/20 A2987 RMK A01 T02200198  RH  087%=      5-min Rain = 0
KEA1 231243Z 14014KT 22/20 A2987 RMK A01 T02200198  RH  087%=      5-min Rain = 0
KEA1 231244Z 14014KT 22/20 A2987 RMK A01 T02200198  RH  087%=      5-min Rain = 0
KEA1 231245Z 13013KT 22/20 A2987 RMK A01 T02200198  RH  087%=      5-min Rain = 0
KEA1 231246Z 13013KT 22/20 A2987 RMK A01 T02200198  RH  087%=      5-min Rain = 0
KEA1 231247Z 13013KT 22/20 A2987 RMK A01 T02200198  RH  087%=      5-min Rain = 0
KEA1 231248Z 13014G19KT 22/20 A2987 RMK A01 T02200198  RH  087%=      5-min Rain = 0
KEA1 231249Z 14015KT 22/20 A2987 RMK A01 T02200198  RH  087%=      5-min Rain = 0
KEA1 231250Z 13015KT 22/20 A2987 RMK A01 T02200198  RH  087%=      5-min Rain = 0
KEA1 231251Z 13015KT 22/20 A2987 RMK A01 T02200198  RH  087%=      5-min Rain = 0
KEA1 231252Z 14013KT 22/20 A2987 RMK A01 T02200198  RH  087%=      5-min Rain = 0
KEA1 231253Z 14015KT 22/20 A2988 RMK A01 T02200198  RH  087%=      5-min Rain = 0
KEA1 231254Z 14016KT 22/20 A2988 RMK A01 T02200198  RH  088%=      5-min Rain = 0
KEA1 231255Z 13015KT 22/20 A2988 RMK A01 T02200198  RH  088%=      5-min Rain = 0
KEA1 231256Z 13013G18KT 22/20 A2988 RMK A01 T02200198  RH  088%=      5-min Rain = 0
KEA1 231257Z 13017KT 22/20 A2988 RMK A01 T02200199  RH  088%=      5-min Rain = 0
KEA1 231258Z 13016KT 22/20 A2988 RMK A01 T02190198  RH  088%=      5-min Rain = 0
KEA1 231259Z 13016KT 22/20 A2988 RMK A01 T02200199  RH  088%=      5-min Rain = 0
KEA1 231300Z 13016G21KT 22/20 A2988 RMK A01 T02200199  RH  088%=      5-min Rain = 0
KEA1 231301Z 13013G22KT 22/20 A2988 RMK A01 T02190198  RH  088%=      5-min Rain = 0
KEA1 231302Z 13018KT 22/20 A2988 RMK A01 T02190199  RH  088%=      5-min Rain = 0
KEA1 231303Z 14017KT 22/20 A2988 RMK A01 T02190198  RH  088%=      5-min Rain = 0
KEA1 231304Z 14018KT 22/20 A2988 RMK A01 T02190199  RH  088%=      5-min Rain = 0
KEA1 231305Z 14019KT 22/20 A2988 RMK A01 T02190199  RH  088%=      5-min Rain = 0
KEA1 231306Z 13013KT 22/20 A2988 RMK A01 T02180198  RH  088%=      5-min Rain = 0
KEA1 231307Z 13015KT 22/20 A2988 RMK A01 T02190199  RH  088%=      5-min Rain = 0
KEA1 231308Z 14014KT 22/20 A2988 RMK A01 T02190198  RH  088%=      5-min Rain = 0
KEA1 231309Z 13014KT 22/20 A2988 RMK A01 T02190199  RH  088%=      5-min Rain = 0
KEA1 231310Z 14015KT 22/20 A2989 RMK A01 T02180199  RH  088%=      5-min Rain = 0
KEA1 231311Z 14014KT 22/20 A2989 RMK A01 T02180199  RH  088%=      5-min Rain = 0
KEA1 231312Z 14013KT 22/20 A2989 RMK A01 T02180199  RH  089%=      5-min Rain = 0
KEA1 231313Z 14012KT 22/20 A2989 RMK A01 T02190199  RH  089%=      5-min Rain = 0
KEA1 231314Z 14012KT 22/20 A2989 RMK A01 T02180199  RH  089%=      5-min Rain = 0
KEA1 231315Z 14013G18KT 22/20 A2989 RMK A01 T02180199  RH  089%=      5-min Rain = 0
KEA1 231316Z 14012KT 22/20 A2989 RMK A01 T02190199  RH  089%=      5-min Rain = 0
KEA1 231317Z 14016KT 22/20 A2989 RMK A01 T02190199  RH  088%=      5-min Rain = 0
KEA1 231318Z 13013KT 22/20 A2989 RMK A01 T02190199  RH  088%=      5-min Rain = 0
KEA1 231319Z 13015KT 22/20 A2989 RMK A01 T02190199  RH  088%=      5-min Rain = 0
KEA1 231320Z 13014KT 22/20 A2989 RMK A01 T02190199  RH  088%=      5-min Rain = 0
KEA1 231321Z 14014KT 22/20 A2989 RMK A01 T02190199  RH  088%=      5-min Rain = 0
KEA1 231322Z 14014KT 22/20 A2989 RMK A01 T02190199  RH  088%=      5-min Rain = 0
KEA1 231323Z 14015KT 22/20 A2989 RMK A01 T02190199  RH  088%=      5-min Rain = 0
KEA1 231324Z 14016KT 22/20 A2989 RMK A01 T02190199  RH  088%=      5-min Rain = 0
KEA1 231325Z 14014KT 22/20 A2989 RMK A01 T02190199  RH  088%=      5-min Rain = 0
KEA1 231326Z 14015KT 22/20 A2989 RMK A01 T02190199  RH  088%=      5-min Rain = 0
KEA1 231327Z 14013KT 22/20 A2989 RMK A01 T02190199  RH  088%=      5-min Rain = 0
KEA1 231328Z 14014KT 22/20 A2989 RMK A01 T02190199  RH  088%=      5-min Rain = 0
KEA1 231329Z 14012KT 22/20 A2989 RMK A01 T02190199  RH  088%=      5-min Rain = 0
KEA1 231330Z 14015KT 22/20 A2989 RMK A01 T02190199  RH  088%=      5-min Rain = 0
KEA1 231331Z 14015KT 22/20 A2989 RMK A01 T02190199  RH  088%=      5-min Rain = 0
KEA1 231332Z 14013KT 22/20 A2989 RMK A01 T02190199  RH  088%=      5-min Rain = 0
KEA1 231333Z 14014KT 22/20 A2989 RMK A01 T02190199  RH  088%=      5-min Rain = 0
KEA1 231334Z 14017KT 22/20 A2989 RMK A01 T02190198  RH  088%=      5-min Rain = 0
KEA1 231335Z 14015KT 22/20 A2989 RMK A01 T02190199  RH  088%=      5-min Rain = 0
KEA1 231336Z 14014KT 22/20 A2988 RMK A01 T02200199  RH  088%=      5-min Rain = 0
KEA1 231337Z 13015KT 22/20 A2988 RMK A01 T02200199  RH  088%=      5-min Rain = 0
KEA1 231338Z 14016KT 22/20 A2988 RMK A01 T02200199  RH  088%=      5-min Rain = 0
KEA1 231339Z 14014G20KT 22/20 A2988 RMK A01 T02210199  RH  087%=      5-min Rain = 0
KEA1 231340Z 14018KT 22/20 A2988 RMK A01 T02220199  RH  087%=      5-min Rain = 0
KEA1 231341Z 14014KT 22/20 A2988 RMK A01 T02230199  RH  086%=      5-min Rain = 0
KEA1 231342Z 14015KT 22/20 A2988 RMK A01 T02240200  RH  086%=      5-min Rain = 0
KEA1 231343Z 14015KT 22/20 A2988 RMK A01 T02240199  RH  086%=      5-min Rain = 0
KEA1 231344Z 14016KT 23/20 A2988 RMK A01 T02250200  RH  086%=      5-min Rain = 0
KEA1 231345Z 14014G20KT 22/20 A2988 RMK A01 T02240199  RH  086%=      5-min Rain = 0
KEA1 231346Z 14017KT 23/20 A2988 RMK A01 T02250199  RH  086%=      5-min Rain = 0
KEA1 231347Z 14017KT 22/20 A2988 RMK A01 T02240199  RH  086%=      5-min Rain = 0
KEA1 231348Z 14019KT 22/20 A2988 RMK A01 T02240199  RH  086%=      5-min Rain = 0
KEA1 231349Z 14018KT 22/20 A2988 RMK A01 T02240199  RH  086%=      5-min Rain = 0
KEA1 231350Z 14016KT 22/20 A2988 RMK A01 T02240199  RH  086%=      5-min Rain = 0
KEA1 231351Z 14014G19KT 23/20 A2988 RMK A01 T02250199  RH  086%=      5-min Rain = 0
KEA1 231352Z 14016KT 23/20 A2988 RMK A01 T02250199  RH  085%=      5-min Rain = 0
KEA1 231353Z 14017KT 23/20 A2988 RMK A01 T02250199  RH  085%=      5-min Rain = 0
KEA1 231354Z 14018KT 23/20 A2988 RMK A01 T02250199  RH  085%=      5-min Rain = 0
KEA1 231355Z 14012KT 23/20 A2988 RMK A01 T02250199  RH  085%=      5-min Rain = 0
KEA1 231356Z 14014KT 23/20 A2988 RMK A01 T02260200  RH  086%=      5-min Rain = 0
KEA1 231357Z 14013G19KT 23/20 A2988 RMK A01 T02270201  RH  085%=      5-min Rain = 0
KEA1 231358Z 14016G21KT 23/20 A2988 RMK A01 T02290202  RH  084%=      5-min Rain = 0
KEA1 231359Z 14016KT 23/20 A2988 RMK A01 T02300201  RH  084%=      5-min Rain = 0
KEA1 231400Z 14017KT 23/20 A2988 RMK A01 T02310201  RH  083%=      5-min Rain = 0
KEA1 231401Z 15021KT 23/20 A2988 RMK A01 T02310200  RH  083%=      5-min Rain = 0
KEA1 231402Z 15016KT 23/20 A2988 RMK A01 T02310201  RH  083%=      5-min Rain = 0
KEA1 231403Z 15019KT 23/20 A2988 RMK A01 T02320201  RH  082%=      5-min Rain = 0
KEA1 231404Z 15021KT 23/20 A2987 RMK A01 T02340200  RH  081%=      5-min Rain = 0
KEA1 231405Z 15022KT 23/20 A2987 RMK A01 T02340200  RH  081%=      5-min Rain = 0
KEA1 231406Z 15019G24KT 23/20 A2987 RMK A01 T02340200  RH  081%=      5-min Rain = 0
KEA1 231407Z 15016KT 23/20 A2987 RMK A01 T02340201  RH  082%=      5-min Rain = 0
KEA1 231408Z 15017KT 24/20 A2987 RMK A01 T02350201  RH  081%=      5-min Rain = 0
KEA1 231409Z 15020G25KT 24/20 A2987 RMK A01 T02360202  RH  081%=      5-min Rain = 0
KEA1 231410Z 14023KT 24/20 A2987 RMK A01 T02370200  RH  080%=      5-min Rain = 0
KEA1 231411Z 15021KT 24/20 A2987 RMK A01 T02370200  RH  080%=      5-min Rain = 0
KEA1 231412Z 15020KT 24/20 A2987 RMK A01 T02370201  RH  080%=      5-min Rain = 0
KEA1 231413Z 15019KT 24/20 A2988 RMK A01 T02380201  RH  080%=      5-min Rain = 0
KEA1 231414Z 15017G22KT 24/20 A2987 RMK A01 T02390202  RH  080%=      5-min Rain = 0
KEA1 231415Z 16019KT 24/20 A2987 RMK A01 T02400201  RH  079%=      5-min Rain = 0
KEA1 231416Z 14016G21KT 24/20 A2988 RMK A01 T02400202  RH  079%=      5-min Rain = 0
KEA1 231417Z 15022KT 24/20 A2987 RMK A01 T02400201  RH  079%=      5-min Rain = 0
KEA1 231418Z 15019G24KT 24/20 A2987 RMK A01 T02400201  RH  078%=      5-min Rain = 0
KEA1 231419Z 14019KT 24/20 A2987 RMK A01 T02400201  RH  079%=      5-min Rain = 0
KEA1 231420Z 15021G26KT 24/20 A2987 RMK A01 T02410201  RH  079%=      5-min Rain = 0
KEA1 231421Z 14022KT 24/20 A2987 RMK A01 T02400201  RH  079%=      5-min Rain = 0
KEA1 231422Z 15022KT 24/20 A2988 RMK A01 T02400201  RH  078%=      5-min Rain = 0
KEA1 231423Z 14018KT 24/20 A2987 RMK A01 T02400201  RH  079%=      5-min Rain = 0
KEA1 231424Z 15021KT 24/20 A2988 RMK A01 T02410202  RH  079%=      5-min Rain = 0
KEA1 231425Z 15021KT 24/20 A2987 RMK A01 T02410200  RH  078%=      5-min Rain = 0
KEA1 231426Z 15019G24KT 24/20 A2988 RMK A01 T02410201  RH  078%=      5-min Rain = 0
KEA1 231427Z 16019G24KT 24/20 A2987 RMK A01 T02420201  RH  077%=      5-min Rain = 0
KEA1 231428Z 15015KT 24/20 A2988 RMK A01 T02430201  RH  078%=      5-min Rain = 0
KEA1 231429Z 15017G24KT 24/20 A2988 RMK A01 T02430203  RH  078%=      5-min Rain = 0
KEA1 231430Z 15021G26KT 24/20 A2987 RMK A01 T02430201  RH  077%=      5-min Rain = 0
KEA1 231431Z 16016KT 24/20 A2988 RMK A01 T02410200  RH  078%=      5-min Rain = 0
KEA1 231432Z 16014KT 24/20 A2988 RMK A01 T02400201  RH  079%=      5-min Rain = 0
KEA1 231433Z 16014KT 24/20 A2988 RMK A01 T02400202  RH  079%=      5-min Rain = 0
KEA1 231434Z 16022KT 24/20 A2987 RMK A01 T02430202  RH  078%=      5-min Rain = 0
KEA1 231435Z 16021G26KT 24/20 A2987 RMK A01 T02440200  RH  076%=      5-min Rain = 0
KEA1 231436Z 15019KT 24/20 A2987 RMK A01 T02440201  RH  077%=      5-min Rain = 0
KEA1 231437Z 15020KT 25/20 A2987 RMK A01 T02450200  RH  076%=      5-min Rain = 0
KEA1 231438Z 16021G27KT 25/20 A2987 RMK A01 T02460198  RH  075%=      5-min Rain = 0
KEA1 231439Z 15019G25KT 25/20 A2987 RMK A01 T02460200  RH  075%=      5-min Rain = 0
KEA1 231440Z 15022KT 25/20 A2987 RMK A01 T02470199  RH  074%=      5-min Rain = 0
KEA1 231441Z 15018G24KT 25/20 A2988 RMK A01 T02470200  RH  075%=      5-min Rain = 0
KEA1 231442Z 16022KT 25/20 A2987 RMK A01 T02490200  RH  074%=      5-min Rain = 0
KEA1 231443Z 15018G24KT 25/20 A2988 RMK A01 T02490201  RH  074%=      5-min Rain = 0
KEA1 231444Z 16018KT 25/20 A2988 RMK A01 T02490201  RH  075%=      5-min Rain = 0
KEA1 231445Z 15019KT 25/20 A2988 RMK A01 T02480201  RH  075%=      5-min Rain = 0
KEA1 231446Z 15019KT 25/20 A2988 RMK A01 T02480201  RH  075%=      5-min Rain = 0
KEA1 231447Z 15017KT 25/20 A2988 RMK A01 T02470201  RH  075%=      5-min Rain = 0
KEA1 231448Z 15020KT 25/20 A2988 RMK A01 T02460202  RH  076%=      5-min Rain = 0
KEA1 231449Z 15017KT 25/20 A2988 RMK A01 T02450201  RH  076%=      5-min Rain = 0
KEA1 231450Z 15019KT 25/20 A2988 RMK A01 T02450201  RH  077%=      5-min Rain = 0
KEA1 231451Z 16017KT 24/20 A2988 RMK A01 T02440200  RH  076%=      5-min Rain = 0
KEA1 231452Z 17019KT 25/20 A2988 RMK A01 T02450200  RH  076%=      5-min Rain = 0
KEA1 231453Z 15019KT 25/20 A2988 RMK A01 T02470199  RH  075%=      5-min Rain = 0
KEA1 231454Z 15017G22KT 25/20 A2988 RMK A01 T02490201  RH  074%=      5-min Rain = 0
KEA1 231455Z 16021G28KT 25/20 A2988 RMK A01 T02520199  RH  073%=      5-min Rain = 0
KEA1 231456Z 16023KT 25/20 A2988 RMK A01 T02510198  RH  073%=      5-min Rain = 0
KEA1 231457Z 16019KT 25/20 A2988 RMK A01 T02480198  RH  073%=      5-min Rain = 0
KEA1 231458Z 16019KT 25/20 A2988 RMK A01 T02470198  RH  074%=      5-min Rain = 0
KEA1 231459Z 16017KT 25/20 A2988 RMK A01 T02470199  RH  075%=      5-min Rain = 0
KEA1 231500Z 15020G27KT 25/20 A2988 RMK A01 T02480199  RH  074%=      5-min Rain = 0
KEA1 231501Z 15021KT 25/20 A2988 RMK A01 T02500198  RH  073%=      5-min Rain = 0
KEA1 231502Z 16020G26KT 25/20 A2988 RMK A01 T02500197  RH  073%=      5-min Rain = 0
KEA1 231503Z 16019G24KT 25/20 A2988 RMK A01 T02500198  RH  073%=      5-min Rain = 0
KEA1 231504Z 17021KT 25/20 A2988 RMK A01 T02510198  RH  072%=      5-min Rain = 0
KEA1 231505Z 17020KT 25/20 A2988 RMK A01 T02520198  RH  072%=      5-min Rain = 0
KEA1 231506Z 17018G23KT 25/20 A2988 RMK A01 T02510198  RH  072%=      5-min Rain = 0
KEA1 231507Z 16020G26KT 25/20 A2988 RMK A01 T02500198  RH  073%=      5-min Rain = 0
KEA1 231508Z 17024KT 25/20 A2988 RMK A01 T02490195  RH  072%=      5-min Rain = 0
KEA1 231509Z 17022KT 25/19 A2988 RMK A01 T02480192  RH  071%=      5-min Rain = 0
KEA1 231510Z 17019G24KT 25/20 A2988 RMK A01 T02510195  RH  071%=      5-min Rain = 0
KEA1 231511Z 16020KT 25/20 A2988 RMK A01 T02540197  RH  071%=      5-min Rain = 0
KEA1 231512Z 17021G27KT 26/20 A2988 RMK A01 T02550195  RH  070%=      5-min Rain = 0
KEA1 231513Z 17017KT 25/20 A2988 RMK A01 T02540196  RH  070%=      5-min Rain = 0
KEA1 231514Z 17020KT 26/20 A2988 RMK A01 T02560196  RH  069%=      5-min Rain = 0
KEA1 231515Z 18020KT 26/20 A2988 RMK A01 T02580195  RH  068%=      5-min Rain = 0
KEA1 231516Z 18017KT 26/20 A2988 RMK A01 T02590196  RH  068%=      5-min Rain = 0
KEA1 231517Z 16018KT 26/20 A2988 RMK A01 T02620198  RH  068%=      5-min Rain = 0
KEA1 231518Z 15021KT 26/20 A2988 RMK A01 T02630198  RH  067%=      5-min Rain = 0
KEA1 231519Z 16021KT 26/20 A2988 RMK A01 T02630197  RH  067%=      5-min Rain = 0
KEA1 231520Z 16022KT 26/20 A2988 RMK A01 T02620195  RH  066%=      5-min Rain = 0
KEA1 231521Z 16021KT 26/19 A2988 RMK A01 T02600194  RH  067%=      5-min Rain = 0
KEA1 231522Z 16020KT 26/20 A2988 RMK A01 T02600195  RH  067%=      5-min Rain = 0
KEA1 231523Z 16021G26KT 26/20 A2988 RMK A01 T02620195  RH  067%=      5-min Rain = 0
KEA1 231524Z 16021KT 26/20 A2988 RMK A01 T02620195  RH  066%=      5-min Rain = 0
KEA1 231525Z 16019KT 26/20 A2988 RMK A01 T02630195  RH  066%=      5-min Rain = 0
KEA1 231526Z 16018KT 26/19 A2988 RMK A01 T02630194  RH  066%=      5-min Rain = 0
KEA1 231527Z 16017KT 26/19 A2988 RMK A01 T02630194  RH  066%=      5-min Rain = 0
KEA1 231528Z 16019KT 27/20 A2988 RMK A01 T02650195  RH  065%=      5-min Rain = 0
KEA1 231529Z 17021KT 27/19 A2988 RMK A01 T02670194  RH  064%=      5-min Rain = 0
KEA1 231530Z 16018KT 27/19 A2988 RMK A01 T02650193  RH  064%=      5-min Rain = 0
KEA1 231531Z 17014KT 26/19 A2988 RMK A01 T02630193  RH  066%=      5-min Rain = 0
KEA1 231532Z 16015KT 26/19 A2988 RMK A01 T02600194  RH  067%=      5-min Rain = 0
KEA1 231533Z 15014KT 26/20 A2988 RMK A01 T02600195  RH  068%=      5-min Rain = 0
KEA1 231534Z 16016KT 26/20 A2988 RMK A01 T02600197  RH  068%=      5-min Rain = 0
KEA1 231535Z 16016KT 26/20 A2988 RMK A01 T02600195  RH  068%=      5-min Rain = 0
KEA1 231536Z 16018KT 26/19 A2988 RMK A01 T02590192  RH  067%=      5-min Rain = 0
KEA1 231537Z 16021G26KT 26/19 A2988 RMK A01 T02590190  RH  066%=      5-min Rain = 0
KEA1 231538Z 16021KT 26/19 A2988 RMK A01 T02590188  RH  065%=      5-min Rain = 0
KEA1 231539Z 15019KT 26/19 A2988 RMK A01 T02580189  RH  066%=      5-min Rain = 0
KEA1 231540Z 16016G21KT 26/19 A2988 RMK A01 T02570191  RH  067%=      5-min Rain = 0
KEA1 231541Z 16018G23KT 26/19 A2988 RMK A01 T02600192  RH  066%=      5-min Rain = 0
KEA1 231542Z 17020KT 26/19 A2988 RMK A01 T02640186  RH  062%=      5-min Rain = 0
KEA1 231543Z 17018KT 27/19 A2988 RMK A01 T02650185  RH  062%=      5-min Rain = 0
KEA1 231544Z 18016KT 27/19 A2988 RMK A01 T02650189  RH  063%=      5-min Rain = 0
KEA1 231545Z 17018KT 27/19 A2988 RMK A01 T02670190  RH  063%=      5-min Rain = 0
KEA1 231546Z 17020KT 27/19 A2988 RMK A01 T02710190  RH  061%=      5-min Rain = 0
KEA1 231547Z 17017KT 27/19 A2988 RMK A01 T02700190  RH  062%=      5-min Rain = 0
KEA1 231548Z 17016G21KT 27/19 A2988 RMK A01 T02670190  RH  063%=      5-min Rain = 0
KEA1 231549Z 16016KT 27/19 A2988 RMK A01 T02660192  RH  064%=      5-min Rain = 0
KEA1 231550Z 16018G23KT 27/19 A2988 RMK A01 T02710192  RH  062%=      5-min Rain = 0
KEA1 231551Z 16020KT 28/18 A2988 RMK A01 T02750184  RH  058%=      5-min Rain = 0
KEA1 231552Z 15017KT 27/19 A2988 RMK A01 T02740185  RH  058%=      5-min Rain = 0
KEA1 231553Z 16020KT 28/18 A2988 RMK A01 T02750183  RH  057%=      5-min Rain = 0
KEA1 231554Z 16020KT 27/18 A2988 RMK A01 T02740183  RH  057%=      5-min Rain = 0
KEA1 231555Z 15021G26KT 27/18 A2988 RMK A01 T02730184  RH  058%=      5-min Rain = 0
KEA1 231556Z 15021KT 27/19 A2988 RMK A01 T02740187  RH  059%=      5-min Rain = 0
KEA1 231557Z 15020G25KT 28/19 A2988 RMK A01 T02750186  RH  058%=      5-min Rain = 0
KEA1 231558Z 16019G25KT 27/19 A2988 RMK A01 T02720186  RH  059%=      5-min Rain = 0
KEA1 231559Z 17016G22KT 27/19 A2988 RMK A01 T02700187  RH  061%=      5-min Rain = 0
KEA1 231600Z 17020KT 27/19 A2988 RMK A01 T02700186  RH  060%=      5-min Rain = 0
KEA1 231601Z 17016KT 27/19 A2988 RMK A01 T02670185  RH  061%=      5-min Rain = 0
KEA1 231602Z 17017G22KT 27/19 A2988 RMK A01 T02650186  RH  062%=      5-min Rain = 0
KEA1 231603Z 17020KT 26/19 A2987 RMK A01 T02640185  RH  062%=      5-min Rain = 0
KEA1 231604Z 16018KT 27/19 A2988 RMK A01 T02650185  RH  062%=      5-min Rain = 0
KEA1 231605Z 15018KT 27/19 A2988 RMK A01 T02670187  RH  061%=      5-min Rain = 0
KEA1 231606Z 16015G20KT 27/19 A2988 RMK A01 T02680187  RH  061%=      5-min Rain = 0
KEA1 231607Z 17015KT 27/19 A2988 RMK A01 T02670187  RH  061%=      5-min Rain = 0
KEA1 231608Z 17014KT 27/19 A2988 RMK A01 T02670187  RH  061%=      5-min Rain = 0
KEA1 231609Z 18017KT 27/19 A2988 RMK A01 T02670185  RH  061%=      5-min Rain = 0
KEA1 231610Z 18018KT 27/18 A2988 RMK A01 T02680184  RH  060%=      5-min Rain = 0
KEA1 231611Z 18021KT 27/19 A2988 RMK A01 T02690186  RH  061%=      5-min Rain = 0
KEA1 231612Z 18019KT 27/19 A2988 RMK A01 T02710185  RH  059%=      5-min Rain = 0
KEA1 231613Z 17014KT 27/19 A2988 RMK A01 T02730185  RH  059%=      5-min Rain = 0
KEA1 231614Z 16016KT 28/19 A2988 RMK A01 T02750186  RH  058%=      5-min Rain = 0
KEA1 231615Z 15021KT 28/18 A2988 RMK A01 T02790184  RH  056%=      5-min Rain = 0
KEA1 231616Z 15021KT 28/18 A2988 RMK A01 T02820183  RH  055%=      5-min Rain = 0
KEA1 231617Z 15020G25KT 28/19 A2988 RMK A01 T02840185  RH  055%=      5-min Rain = 0
KEA1 231618Z 16022G27KT 29/19 A2988 RMK A01 T02850187  RH  055%=      5-min Rain = 0
KEA1 231619Z 16020KT 28/18 A2988 RMK A01 T02820183  RH  055%=      5-min Rain = 0
KEA1 231620Z 15018G24KT 28/19 A2988 RMK A01 T02800187  RH  057%=      5-min Rain = 0
KEA1 231621Z 17019G24KT 28/19 A2988 RMK A01 T02820185  RH  056%=      5-min Rain = 0
KEA1 231622Z 16017G22KT 28/19 A2988 RMK A01 T02820186  RH  056%=      5-min Rain = 0
KEA1 231623Z 17017KT 28/18 A2988 RMK A01 T02840183  RH  054%=      5-min Rain = 0
KEA1 231624Z 18017G22KT 28/18 A2988 RMK A01 T02830179  RH  053%=      5-min Rain = 0
KEA1 231625Z 18019KT 28/17 A2988 RMK A01 T02800173  RH  052%=      5-min Rain = 0
KEA1 231626Z 18016KT 28/18 A2988 RMK A01 T02790175  RH  053%=      5-min Rain = 0
KEA1 231627Z 19018KT 28/18 A2988 RMK A01 T02790178  RH  054%=      5-min Rain = 0
KEA1 231628Z 18016KT 28/18 A2988 RMK A01 T02770177  RH  055%=      5-min Rain = 0
KEA1 231629Z 17019KT 28/18 A2988 RMK A01 T02760178  RH  055%=      5-min Rain = 0
KEA1 231630Z 16019KT 28/18 A2988 RMK A01 T02780176  RH  054%=      5-min Rain = 0
KEA1 231631Z 17016KT 28/18 A2988 RMK A01 T02780179  RH  055%=      5-min Rain = 0
KEA1 231632Z 17016G24KT 28/19 A2988 RMK A01 T02840185  RH  055%=      5-min Rain = 0
KEA1 231633Z 17021KT 29/18 A2988 RMK A01 T02880177  RH  051%=      5-min Rain = 0
KEA1 231634Z 17021G29KT 28/18 A2987 RMK A01 T02840179  RH  053%=      5-min Rain = 0
KEA1 231635Z 17020KT 28/18 A2988 RMK A01 T02830182  RH  054%=      5-min Rain = 0
KEA1 231636Z 18021KT 29/18 A2988 RMK A01 T02850181  RH  053%=      5-min Rain = 0
KEA1 231637Z 17018G23KT 28/18 A2988 RMK A01 T02820177  RH  053%=      5-min Rain = 0
KEA1 231638Z 17019KT 28/18 A2988 RMK A01 T02770175  RH  054%=      5-min Rain = 0
KEA1 231639Z 16018KT 28/17 A2988 RMK A01 T02760169  RH  052%=      5-min Rain = 0
KEA1 231640Z 16019KT 28/17 A2988 RMK A01 T02780174  RH  053%=      5-min Rain = 0
KEA1 231641Z 17019KT 28/18 A2988 RMK A01 T02800178  RH  054%=      5-min Rain = 0
KEA1 231642Z 17018KT 28/18 A2988 RMK A01 T02810179  RH  054%=      5-min Rain = 0
KEA1 231643Z 17015KT 29/18 A2988 RMK A01 T02850184  RH  054%=      5-min Rain = 0
KEA1 231644Z 18015G21KT 29/18 A2988 RMK A01 T02910182  RH  052%=      5-min Rain = 0
KEA1 231645Z 18018KT 29/17 A2988 RMK A01 T02930169  RH  047%=      5-min Rain = 0
KEA1 231646Z 18017KT 29/17 A2988 RMK A01 T02890167  RH  048%=      5-min Rain = 0
KEA1 231647Z 16016KT 29/17 A2988 RMK A01 T02880168  RH  048%=      5-min Rain = 0
KEA1 231648Z 17015KT 29/17 A2988 RMK A01 T02890172  RH  049%=      5-min Rain = 0
KEA1 231649Z 17019G24KT 29/17 A2988 RMK A01 T02920174  RH  049%=      5-min Rain = 0
KEA1 231650Z 17020G25KT 29/17 A2987 RMK A01 T02930173  RH  048%=      5-min Rain = 0
KEA1 231651Z 17016KT 29/17 A2988 RMK A01 T02910174  RH  049%=      5-min Rain = 0
KEA1 231652Z 17019KT 29/18 A2988 RMK A01 T02900175  RH  050%=      5-min Rain = 0
KEA1 231653Z 17018KT 29/17 A2987 RMK A01 T02890172  RH  049%=      5-min Rain = 0
KEA1 231654Z 18016KT 29/17 A2987 RMK A01 T02860173  RH  051%=      5-min Rain = 0
KEA1 231655Z 18018KT 29/17 A2987 RMK A01 T02860171  RH  050%=      5-min Rain = 0
KEA1 231656Z 17017G22KT 29/17 A2987 RMK A01 T02870170  RH  049%=      5-min Rain = 0
KEA1 231657Z 17018G24KT 29/17 A2987 RMK A01 T02900174  RH  049%=      5-min Rain = 0
KEA1 231658Z 17023KT 29/17 A2987 RMK A01 T02930172  RH  048%=      5-min Rain = 0
KEA1 231659Z 17017KT 29/17 A2988 RMK A01 T02900171  RH  049%=      5-min Rain = 0
KEA1 231700Z 17016KT 29/17 A2988 RMK A01 T02870173  RH  050%=      5-min Rain = 0
KEA1 231701Z 17016KT 29/17 A2987 RMK A01 T02870173  RH  050%=      5-min Rain = 0
KEA1 231702Z 17016KT 29/18 A2987 RMK A01 T02920177  RH  050%=      5-min Rain = 0
KEA1 231703Z 16020KT 30/17 A2987 RMK A01 T02950172  RH  047%=      5-min Rain = 0
KEA1 231704Z 16020KT 30/17 A2987 RMK A01 T02960169  RH  046%=      5-min Rain = 0
KEA1 231705Z 16021KT 29/17 A2987 RMK A01 T02940167  RH  046%=      5-min Rain = 0
KEA1 231706Z 18018KT 29/17 A2987 RMK A01 T02930168  RH  047%=      5-min Rain = 0
KEA1 231707Z 18016KT 29/17 A2987 RMK A01 T02910169  RH  048%=      5-min Rain = 0
KEA1 231708Z 18020KT 30/17 A2987 RMK A01 T02950172  RH  048%=      5-min Rain = 0
KEA1 231709Z 17018KT 30/17 A2987 RMK A01 T02970171  RH  047%=      5-min Rain = 0
KEA1 231710Z 18018G23KT 30/17 A2987 RMK A01 T02960173  RH  048%=      5-min Rain = 0
KEA1 231711Z 17017G22KT 29/17 A2987 RMK A01 T02920169  RH  047%=      5-min Rain = 0
KEA1 231712Z 17021KT 29/17 A2987 RMK A01 T02890169  RH  048%=      5-min Rain = 0
KEA1 231713Z 16021KT 29/17 A2987 RMK A01 T02880168  RH  048%=      5-min Rain = 0
KEA1 231714Z 16021KT 29/16 A2987 RMK A01 T02910164  RH  046%=      5-min Rain = 0
KEA1 231715Z 17015G20KT 29/17 A2987 RMK A01 T02910166  RH  047%=      5-min Rain = 0
KEA1 231716Z 17018G29KT 29/17 A2987 RMK A01 T02930168  RH  047%=      5-min Rain = 0
KEA1 231717Z 17023KT 29/17 A2987 RMK A01 T02930169  RH  047%=      5-min Rain = 0
KEA1 231718Z 18021KT 29/17 A2987 RMK A01 T02920171  RH  048%=      5-min Rain = 0
KEA1 231719Z 18016KT 29/17 A2987 RMK A01 T02930171  RH  048%=      5-min Rain = 0
KEA1 231720Z 18017KT 29/17 A2987 RMK A01 T02920171  RH  048%=      5-min Rain = 0
KEA1 231721Z 18016G21KT 29/17 A2987 RMK A01 T02890171  RH  049%=      5-min Rain = 0
KEA1 231722Z 18018G23KT 29/17 A2987 RMK A01 T02860166  RH  048%=      5-min Rain = 0
KEA1 231723Z 18018G24KT 29/17 A2987 RMK A01 T02860168  RH  049%=      5-min Rain = 0
KEA1 231724Z 17020G26KT 29/17 A2987 RMK A01 T02870170  RH  049%=      5-min Rain = 0
KEA1 231725Z 17023KT 29/17 A2987 RMK A01 T02870170  RH  049%=      5-min Rain = 0
KEA1 231726Z 18019KT 29/17 A2987 RMK A01 T02850168  RH  049%=      5-min Rain = 0
KEA1 231727Z 18016KT 29/17 A2987 RMK A01 T02860167  RH  049%=      5-min Rain = 0
KEA1 231728Z 17017KT 29/17 A2987 RMK A01 T02860168  RH  049%=      5-min Rain = 0
KEA1 231729Z 18019KT 29/17 A2987 RMK A01 T02880169  RH  049%=      5-min Rain = 0
KEA1 231730Z 17018G23KT 29/17 A2987 RMK A01 T02920173  RH  049%=      5-min Rain = 0
KEA1 231731Z 16019G24KT 30/17 A2987 RMK A01 T02950172  RH  048%=      5-min Rain = 0
KEA1 231732Z 16019KT 29/17 A2987 RMK A01 T02940170  RH  047%=      5-min Rain = 0
KEA1 231733Z 16020KT 30/17 A2987 RMK A01 T02950170  RH  047%=      5-min Rain = 0
KEA1 231734Z 17017G22KT 30/17 A2987 RMK A01 T02970172  RH  047%=      5-min Rain = 0
KEA1 231735Z 17018KT 30/17 A2987 RMK A01 T02990173  RH  047%=      5-min Rain = 0
KEA1 231736Z 17016G21KT 30/18 A2987 RMK A01 T03020177  RH  047%=      5-min Rain = 0
KEA1 231737Z 17019KT 31/17 A2987 RMK A01 T03060173  RH  045%=      5-min Rain = 0
KEA1 231738Z 17021G26KT 31/17 A2987 RMK A01 T03060168  RH  044%=      5-min Rain = 0
KEA1 231739Z 16018KT 30/17 A2987 RMK A01 T03030168  RH  044%=      5-min Rain = 0
KEA1 231740Z 16020KT 30/17 A2987 RMK A01 T03040168  RH  044%=      5-min Rain = 0
KEA1 231741Z 17021KT 30/17 A2987 RMK A01 T03030169  RH  044%=      5-min Rain = 0
KEA1 231742Z 18022KT 30/17 A2987 RMK A01 T03020168  RH  044%=      5-min Rain = 0
KEA1 231743Z 17025KT 30/16 A2987 RMK A01 T03040161  RH  042%=      5-min Rain = 0
KEA1 231744Z 17020KT 30/17 A2987 RMK A01 T03020165  RH  044%=      5-min Rain = 0
KEA1 231745Z 17019G25KT 30/17 A2987 RMK A01 T03020166  RH  044%=      5-min Rain = 0
KEA1 231746Z 17017G23KT 30/17 A2987 RMK A01 T03020173  RH  046%=      5-min Rain = 0
KEA1 231747Z 17019KT 30/18 A2987 RMK A01 T03030176  RH  047%=      5-min Rain = 0
KEA1 231748Z 18019KT 30/17 A2987 RMK A01 T03040172  RH  045%=      5-min Rain = 0
KEA1 231749Z 18019KT 30/17 A2987 RMK A01 T03030167  RH  044%=      5-min Rain = 0
KEA1 231750Z 17022G28KT 30/16 A2987 RMK A01 T03000164  RH  044%=      5-min Rain = 0
KEA1 231751Z 16016KT 30/16 A2987 RMK A01 T03000161  RH  043%=      5-min Rain = 0
KEA1 231752Z 17023KT 30/17 A2987 RMK A01 T03030165  RH  043%=      5-min Rain = 0
KEA1 231753Z 17021KT 31/17 A2987 RMK A01 T03060169  RH  044%=      5-min Rain = 0
KEA1 231754Z 18020KT 31/17 A2987 RMK A01 T03060170  RH  044%=      5-min Rain = 0
KEA1 231755Z 17023KT 31/17 A2986 RMK A01 T03050171  RH  044%=      5-min Rain = 0
KEA1 231756Z 16021KT 30/17 A2987 RMK A01 T03040169  RH  044%=      5-min Rain = 0
KEA1 231757Z 16020G27KT 30/17 A2987 RMK A01 T03040169  RH  044%=      5-min Rain = 0
KEA1 231758Z 16021G26KT 30/17 A2987 RMK A01 T03040169  RH  044%=      5-min Rain = 0
KEA1 231759Z 17019KT 30/17 A2987 RMK A01 T03030167  RH  044%=      5-min Rain = 0
KEA1 231800Z 16017KT 30/17 A2987 RMK A01 T02980167  RH  045%=      5-min Rain = 0
KEA1 231801Z 17016G25KT 30/17 A2987 RMK A01 T02970169  RH  046%=      5-min Rain = 0
KEA1 231802Z 16018G23KT 30/17 A2986 RMK A01 T03030171  RH  045%=      5-min Rain = 0
KEA1 231803Z 17020G26KT 31/17 A2986 RMK A01 T03110171  RH  043%=      5-min Rain = 0
KEA1 231804Z 17021G27KT 31/17 A2986 RMK A01 T03130172  RH  043%=      5-min Rain = 0
KEA1 231805Z 17021G26KT 31/17 A2986 RMK A01 T03090171  RH  043%=      5-min Rain = 0
KEA1 231806Z 17022KT 31/17 A2986 RMK A01 T03060172  RH  045%=      5-min Rain = 0
KEA1 231807Z 17022KT 31/17 A2986 RMK A01 T03060170  RH  044%=      5-min Rain = 0
KEA1 231808Z 16019KT 31/17 A2986 RMK A01 T03050168  RH  044%=      5-min Rain = 0
KEA1 231809Z 16018G23KT 31/17 A2986 RMK A01 T03060171  RH  044%=      5-min Rain = 0
KEA1 231810Z 16016KT 31/17 A2986 RMK A01 T03080172  RH  044%=      5-min Rain = 0
KEA1 231811Z 16018KT 31/17 A2986 RMK A01 T03080170  RH  044%=      5-min Rain = 0
KEA1 231812Z 16020KT 30/17 A2986 RMK A01 T03010169  RH  045%=      5-min Rain = 0
KEA1 231813Z 16021KT 30/17 A2986 RMK A01 T03000168  RH  045%=      5-min Rain = 0
KEA1 231814Z 16022KT 30/17 A2986 RMK A01 T03010170  RH  045%=      5-min Rain = 0
KEA1 231815Z 16021KT 30/17 A2986 RMK A01 T03020172  RH  046%=      5-min Rain = 0
KEA1 231816Z 16018G23KT 30/17 A2986 RMK A01 T03030174  RH  046%=      5-min Rain = 0
KEA1 231817Z 15020KT 30/18 A2986 RMK A01 T03040175  RH  046%=      5-min Rain = 0
KEA1 231818Z 14020KT 30/17 A2986 RMK A01 T03030174  RH  046%=      5-min Rain = 0
KEA1 231819Z 15017KT 30/18 A2986 RMK A01 T03010175  RH  047%=      5-min Rain = 0
KEA1 231820Z 16015KT 30/18 A2986 RMK A01 T03020176  RH  047%=      5-min Rain = 0
KEA1 231821Z 15016KT 31/18 A2986 RMK A01 T03060178  RH  046%=      5-min Rain = 0
KEA1 231822Z 15019G27KT 31/18 A2986 RMK A01 T03060177  RH  046%=      5-min Rain = 0
KEA1 231823Z 15019KT 31/17 A2986 RMK A01 T03060165  RH  043%=      5-min Rain = 0
KEA1 231824Z 16022G27KT 31/16 A2986 RMK A01 T03060163  RH  042%=      5-min Rain = 0
KEA1 231825Z 16021KT 31/16 A2985 RMK A01 T03050160  RH  041%=      5-min Rain = 0
KEA1 231826Z 16020G27KT 30/16 A2985 RMK A01 T03040164  RH  043%=      5-min Rain = 0
KEA1 231827Z 15024KT 31/16 A2985 RMK A01 T03090160  RH  041%=      5-min Rain = 0
KEA1 231828Z 16022KT 31/16 A2985 RMK A01 T03110160  RH  040%=      5-min Rain = 0
KEA1 231829Z 16022KT 31/16 A2985 RMK A01 T03120160  RH  040%=      5-min Rain = 0
KEA1 231830Z 17019KT 31/16 A2985 RMK A01 T03120163  RH  041%=      5-min Rain = 0
KEA1 231831Z 17017KT 31/16 A2985 RMK A01 T03100162  RH  041%=      5-min Rain = 0
KEA1 231832Z 18014KT 31/16 A2985 RMK A01 T03080161  RH  041%=      5-min Rain = 0
KEA1 231833Z 18016KT 31/16 A2985 RMK A01 T03050162  RH  042%=      5-min Rain = 0
KEA1 231834Z 17015KT 31/17 A2985 RMK A01 T03050167  RH  043%=      5-min Rain = 0
KEA1 231835Z 16018G25KT 31/17 A2985 RMK A01 T03130170  RH  043%=      5-min Rain = 0
KEA1 231836Z 16022KT 32/16 A2985 RMK A01 T03160164  RH  040%=      5-min Rain = 0
KEA1 231837Z 16017G22KT 31/16 A2985 RMK A01 T03140164  RH  040%=      5-min Rain = 0
KEA1 231838Z 17021KT 31/17 A2985 RMK A01 T03130165  RH  041%=      5-min Rain = 0
KEA1 231839Z 17021KT 31/16 A2985 RMK A01 T03110164  RH  041%=      5-min Rain = 0
KEA1 231840Z 16024KT 31/16 A2985 RMK A01 T03090163  RH  042%=      5-min Rain = 0
KEA1 231841Z 15020KT 30/16 A2985 RMK A01 T03040161  RH  042%=      5-min Rain = 0
KEA1 231842Z 15019KT 30/16 A2985 RMK A01 T03010162  RH  043%=      5-min Rain = 0
KEA1 231843Z 15020G26KT 30/16 A2985 RMK A01 T03000164  RH  044%=      5-min Rain = 0
KEA1 231844Z 16020G25KT 30/16 A2985 RMK A01 T03000161  RH  043%=      5-min Rain = 0
KEA1 231845Z 16018KT 30/16 A2985 RMK A01 T03000162  RH  043%=      5-min Rain = 0
KEA1 231846Z 16019KT 30/16 A2985 RMK A01 T02990162  RH  044%=      5-min Rain = 0
KEA1 231847Z 16019G28KT 30/16 A2985 RMK A01 T02980163  RH  044%=      5-min Rain = 0
KEA1 231848Z 14022G29KT 30/16 A2985 RMK A01 T02980160  RH  043%=      5-min Rain = 0
KEA1 231849Z 15022KT 31/16 A2985 RMK A01 T03050158  RH  041%=      5-min Rain = 0
KEA1 231850Z 15019KT 31/16 A2985 RMK A01 T03080157  RH  040%=      5-min Rain = 0
KEA1 231851Z 17020KT 31/16 A2985 RMK A01 T03100162  RH  041%=      5-min Rain = 0
KEA1 231852Z 17019KT 31/16 A2985 RMK A01 T03120161  RH  040%=      5-min Rain = 0
KEA1 231853Z 16019G24KT 31/16 A2985 RMK A01 T03110160  RH  040%=      5-min Rain = 0
KEA1 231854Z 17017KT 31/16 A2985 RMK A01 T03060160  RH  041%=      5-min Rain = 0
KEA1 231855Z 16022G28KT 30/16 A2985 RMK A01 T03040157  RH  041%=      5-min Rain = 0
KEA1 231856Z 15026KT 30/16 A2984 RMK A01 T03040155  RH  041%=      5-min Rain = 0
KEA1 231857Z 16026G31KT 31/15 A2984 RMK A01 T03070154  RH  040%=      5-min Rain = 0
KEA1 231858Z 17024KT 31/16 A2984 RMK A01 T03100155  RH  039%=      5-min Rain = 0
KEA1 231859Z 16023G28KT 31/16 A2985 RMK A01 T03070155  RH  040%=      5-min Rain = 0
KEA1 231900Z 17018KT 30/15 A2985 RMK A01 T03030154  RH  041%=      5-min Rain = 0
KEA1 231901Z 16017KT 30/16 A2985 RMK A01 T03020159  RH  042%=      5-min Rain = 0
KEA1 231902Z 17018G23KT 30/16 A2985 RMK A01 T03030158  RH  042%=      5-min Rain = 0
KEA1 231903Z 17017KT 30/16 A2985 RMK A01 T03020155  RH  041%=      5-min Rain = 0
KEA1 231904Z 17020G25KT 30/15 A2985 RMK A01 T03010152  RH  040%=      5-min Rain = 0
KEA1 231905Z 17022KT 30/15 A2985 RMK A01 T02990150  RH  040%=      5-min Rain = 0
KEA1 231906Z 17020KT 30/15 A2985 RMK A01 T03010152  RH  041%=      5-min Rain = 0
KEA1 231907Z 17019G24KT 31/16 A2985 RMK A01 T03060155  RH  040%=      5-min Rain = 0
KEA1 231908Z 17017KT 31/16 A2985 RMK A01 T03090156  RH  040%=      5-min Rain = 0
KEA1 231909Z 17018G23KT 31/16 A2984 RMK A01 T03100159  RH  040%=      5-min Rain = 0
KEA1 231910Z 16018KT 31/16 A2984 RMK A01 T03080157  RH  040%=      5-min Rain = 0
KEA1 231911Z 18018G24KT 31/16 A2985 RMK A01 T03050157  RH  041%=      5-min Rain = 0
KEA1 231912Z 17020KT 30/16 A2985 RMK A01 T03040158  RH  041%=      5-min Rain = 0
KEA1 231913Z 18021KT 30/15 A2984 RMK A01 T03020154  RH  041%=      5-min Rain = 0
KEA1 231914Z 17023KT 30/16 A2984 RMK A01 T03000155  RH  041%=      5-min Rain = 0
KEA1 231915Z 17021KT 30/16 A2984 RMK A01 T03030156  RH  041%=      5-min Rain = 0
KEA1 231916Z 18021KT 31/16 A2984 RMK A01 T03050156  RH  040%=      5-min Rain = 0
KEA1 231917Z 18021G26KT 30/15 A2984 RMK A01 T03040153  RH  040%=      5-min Rain = 0
KEA1 231918Z 17017KT 30/15 A2984 RMK A01 T03020154  RH  041%=      5-min Rain = 0
KEA1 231919Z 17015KT 30/15 A2985 RMK A01 T03000154  RH  041%=      5-min Rain = 0
KEA1 231920Z 16018KT 30/15 A2984 RMK A01 T03000151  RH  040%=      5-min Rain = 0
KEA1 231921Z 16018KT 30/15 A2984 RMK A01 T02990150  RH  040%=      5-min Rain = 0
KEA1 231922Z 17015KT 30/15 A2984 RMK A01 T02990152  RH  041%=      5-min Rain = 0
KEA1 231923Z 17013KT 30/15 A2984 RMK A01 T02980154  RH  042%=      5-min Rain = 0
KEA1 231924Z 15014KT 30/16 A2984 RMK A01 T02980156  RH  042%=      5-min Rain = 0
KEA1 231925Z 15015G23KT 30/16 A2984 RMK A01 T03000158  RH  042%=      5-min Rain = 0
KEA1 231926Z 15022KT 30/16 A2984 RMK A01 T03020156  RH  041%=      5-min Rain = 0
KEA1 231927Z 15023KT 30/16 A2984 RMK A01 T03020156  RH  041%=      5-min Rain = 0
KEA1 231928Z 15021G26KT 30/16 A2984 RMK A01 T03030158  RH  042%=      5-min Rain = 0
KEA1 231929Z 16022KT 31/16 A2984 RMK A01 T03050157  RH  041%=      5-min Rain = 0
KEA1 231930Z 18020KT 31/15 A2984 RMK A01 T03050152  RH  039%=      5-min Rain = 0
KEA1 231931Z 18017G22KT 30/15 A2984 RMK A01 T03040151  RH  039%=      5-min Rain = 0
KEA1 231932Z 18019KT 30/15 A2984 RMK A01 T03030150  RH  039%=      5-min Rain = 0
KEA1 231933Z 18018KT 30/15 A2984 RMK A01 T03040154  RH  040%=      5-min Rain = 0
KEA1 231934Z 16020G25KT 31/16 A2983 RMK A01 T03080158  RH  040%=      5-min Rain = 0
KEA1 231935Z 15021KT 32/16 A2984 RMK A01 T03150160  RH  039%=      5-min Rain = 0
KEA1 231936Z 15023G29KT 32/16 A2983 RMK A01 T03190159  RH  038%=      5-min Rain = 0
KEA1 231937Z 16021G28KT 32/15 A2984 RMK A01 T03200152  RH  036%=      5-min Rain = 0
KEA1 231938Z 15019KT 32/15 A2983 RMK A01 T03160150  RH  037%=      5-min Rain = 0
KEA1 231939Z 16022KT 31/15 A2983 RMK A01 T03110146  RH  037%=      5-min Rain = 0
KEA1 231940Z 16018KT 31/15 A2983 RMK A01 T03080147  RH  037%=      5-min Rain = 0
KEA1 231941Z 16019G25KT 31/15 A2983 RMK A01 T03070150  RH  038%=      5-min Rain = 0
KEA1 231942Z 16014G19KT 31/15 A2984 RMK A01 T03060151  RH  039%=      5-min Rain = 0
KEA1 231943Z 15015KT 31/16 A2983 RMK A01 T03060155  RH  040%=      5-min Rain = 0
KEA1 231944Z 17018G25KT 31/16 A2984 RMK A01 T03110156  RH  039%=      5-min Rain = 0
KEA1 231945Z 18021G26KT 31/16 A2983 RMK A01 T03140156  RH  039%=      5-min Rain = 0
KEA1 231946Z 18015KT 31/16 A2984 RMK A01 T03130157  RH  039%=      5-min Rain = 0
KEA1 231947Z 19013KT 31/15 A2984 RMK A01 T03120150  RH  038%=      5-min Rain = 0
KEA1 231948Z 18013KT 31/15 A2983 RMK A01 T03100148  RH  037%=      5-min Rain = 0
KEA1 231949Z 18015KT 31/15 A2983 RMK A01 T03120152  RH  038%=      5-min Rain = 0
KEA1 231950Z 17022KT 32/15 A2983 RMK A01 T03160154  RH  038%=      5-min Rain = 0
KEA1 231951Z 15023KT 32/16 A2983 RMK A01 T03180155  RH  037%=      5-min Rain = 0
KEA1 231952Z 17019KT 32/16 A2983 RMK A01 T03200156  RH  037%=      5-min Rain = 0
KEA1 231953Z 17021KT 32/15 A2983 RMK A01 T03220152  RH  036%=      5-min Rain = 0
KEA1 231954Z 18020G26KT 32/15 A2983 RMK A01 T03230150  RH  035%=      5-min Rain = 0
KEA1 231955Z 18017KT 32/15 A2983 RMK A01 T03220151  RH  035%=      5-min Rain = 0
KEA1 231956Z 16019KT 32/15 A2983 RMK A01 T03210151  RH  036%=      5-min Rain = 0
KEA1 231957Z 17017KT 32/15 A2983 RMK A01 T03160149  RH  036%=      5-min Rain = 0
KEA1 231958Z 16015G21KT 31/15 A2983 RMK A01 T03130151  RH  038%=      5-min Rain = 0
KEA1 231959Z 16019KT 31/15 A2983 RMK A01 T03120150  RH  038%=      5-min Rain = 0
KEA1 232000Z 17018KT 31/15 A2983 RMK A01 T03100151  RH  038%=      5-min Rain = 0
KEA1 232001Z 16021G27KT 31/15 A2983 RMK A01 T03110153  RH  038%=      5-min Rain = 0
KEA1 232002Z 16025G31KT 31/15 A2982 RMK A01 T03130150  RH  037%=      5-min Rain = 0
KEA1 232003Z 16026KT 32/15 A2982 RMK A01 T03150149  RH  037%=      5-min Rain = 0
KEA1 232004Z 17024KT 32/15 A2982 RMK A01 T03160146  RH  036%=      5-min Rain = 0
KEA1 232005Z 16020KT 31/15 A2983 RMK A01 T03130146  RH  036%=      5-min Rain = 0
KEA1 232006Z 16017KT 31/15 A2982 RMK A01 T03120150  RH  037%=      5-min Rain = 0
KEA1 232007Z 17018KT 32/16 A2983 RMK A01 T03190157  RH  038%=      5-min Rain = 0
KEA1 232008Z 18016KT 32/15 A2983 RMK A01 T03230153  RH  036%=      5-min Rain = 0
KEA1 232009Z 18017KT 32/16 A2982 RMK A01 T03230155  RH  036%=      5-min Rain = 0
KEA1 232010Z 16016KT 33/16 A2982 RMK A01 T03270160  RH  037%=      5-min Rain = 0
KEA1 232011Z 17024G31KT 33/15 A2982 RMK A01 T03310154  RH  034%=      5-min Rain = 0
KEA1 232012Z 17023KT 33/15 A2982 RMK A01 T03260148  RH  034%=      5-min Rain = 0
KEA1 232013Z 17022KT 32/15 A2982 RMK A01 T03210145  RH  034%=      5-min Rain = 0
KEA1 232014Z 16021KT 32/15 A2982 RMK A01 T03180145  RH  035%=      5-min Rain = 0
KEA1 232015Z 17017KT 32/15 A2982 RMK A01 T03190149  RH  036%=      5-min Rain = 0
KEA1 232016Z 18019G24KT 32/14 A2982 RMK A01 T03210143  RH  034%=      5-min Rain = 0
KEA1 232017Z 17022G27KT 32/14 A2982 RMK A01 T03220137  RH  033%=      5-min Rain = 0
KEA1 232018Z 16021G26KT 32/14 A2982 RMK A01 T03210143  RH  034%=      5-min Rain = 0
KEA1 232019Z 17021KT 32/15 A2982 RMK A01 T03220145  RH  034%=      5-min Rain = 0
KEA1 232020Z 15023G29KT 32/15 A2982 RMK A01 T03240146  RH  034%=      5-min Rain = 0
KEA1 232021Z 17026KT 33/14 A2982 RMK A01 T03250143  RH  033%=      5-min Rain = 0
KEA1 232022Z 18023KT 32/14 A2982 RMK A01 T03200142  RH  034%=      5-min Rain = 0
KEA1 232023Z 18020KT 32/15 A2982 RMK A01 T03170145  RH  035%=      5-min Rain = 0
KEA1 232024Z 17019KT 32/15 A2982 RMK A01 T03180146  RH  035%=      5-min Rain = 0
KEA1 232025Z 16022G27KT 32/15 A2982 RMK A01 T03230150  RH  035%=      5-min Rain = 0
KEA1 232026Z 16022G27KT 33/15 A2982 RMK A01 T03250148  RH  034%=      5-min Rain = 0
KEA1 232027Z 17022G27KT 32/15 A2982 RMK A01 T03230147  RH  034%=      5-min Rain = 0
KEA1 232028Z 18026G31KT 33/15 A2981 RMK A01 T03260147  RH  034%=      5-min Rain = 0
KEA1 232029Z 18025KT 33/14 A2981 RMK A01 T03260138  RH  032%=      5-min Rain = 0
KEA1 232030Z 19021G26KT 33/14 A2981 RMK A01 T03250140  RH  032%=      5-min Rain = 0
KEA1 232031Z 17021G27KT 33/15 A2982 RMK A01 T03270147  RH  034%=      5-min Rain = 0
KEA1 232032Z 17022G27KT 33/15 A2982 RMK A01 T03300147  RH  033%=      5-min Rain = 0
KEA1 232033Z 17019KT 33/15 A2982 RMK A01 T03290146  RH  033%=      5-min Rain = 0
KEA1 232034Z 17018KT 33/15 A2981 RMK A01 T03270148  RH  034%=      5-min Rain = 0
KEA1 232035Z 18020G25KT 33/15 A2981 RMK A01 T03270148  RH  034%=      5-min Rain = 0
KEA1 232036Z 17020G31KT 33/15 A2981 RMK A01 T03290148  RH  034%=      5-min Rain = 0
KEA1 232037Z 17026G32KT 33/14 A2981 RMK A01 T03310141  RH  032%=      5-min Rain = 0
KEA1 232038Z 18022KT 33/14 A2981 RMK A01 T03270136  RH  031%=      5-min Rain = 0
KEA1 232039Z 18023KT 32/13 A2981 RMK A01 T03210134  RH  032%=      5-min Rain = 0
KEA1 232040Z 17022KT 32/14 A2981 RMK A01 T03200137  RH  033%=      5-min Rain = 0
KEA1 232041Z 16023KT 32/14 A2981 RMK A01 T03210140  RH  033%=      5-min Rain = 0
KEA1 232042Z 18022G30KT 33/14 A2981 RMK A01 T03250144  RH  033%=      5-min Rain = 0
KEA1 232043Z 18023G28KT 33/15 A2981 RMK A01 T03290145  RH  033%=      5-min Rain = 0
KEA1 232044Z 17020G25KT 33/14 A2981 RMK A01 T03270144  RH  033%=      5-min Rain = 0
KEA1 232045Z 16018KT 33/14 A2981 RMK A01 T03270143  RH  033%=      5-min Rain = 0
KEA1 232046Z 16015KT 33/15 A2981 RMK A01 T03250147  RH  034%=      5-min Rain = 0
KEA1 232047Z 17016G22KT 33/15 A2981 RMK A01 T03310154  RH  035%=      5-min Rain = 0
KEA1 232048Z 18024G29KT 34/15 A298 RMK A01 T03360147  RH  032%=      5-min Rain = 0
KEA1 232049Z 18026G32KT 33/14 A298 RMK A01 T03300137  RH  031%=      5-min Rain = 0
KEA1 232050Z 17024KT 33/14 A298 RMK A01 T03250136  RH  032%=      5-min Rain = 0
KEA1 232051Z 17024KT 33/14 A2981 RMK A01 T03260137  RH  032%=      5-min Rain = 0
KEA1 232052Z 17019G25KT 33/14 A2981 RMK A01 T03270140  RH  032%=      5-min Rain = 0
KEA1 232053Z 18024G29KT 33/14 A2981 RMK A01 T03300136  RH  031%=      5-min Rain = 0
KEA1 232054Z 17023G28KT 33/13 A298 RMK A01 T03280132  RH  031%=      5-min Rain = 0
KEA1 232055Z 17024KT 32/13 A2981 RMK A01 T03240130  RH  031%=      5-min Rain = 0
KEA1 232056Z 18021KT 32/13 A2981 RMK A01 T03230131  RH  031%=      5-min Rain = 0
KEA1 232057Z 18021G26KT 33/14 A298 RMK A01 T03260135  RH  032%=      5-min Rain = 0
KEA1 232058Z 18021G26KT 33/14 A298 RMK A01 T03270137  RH  032%=      5-min Rain = 0
KEA1 232059Z 16021G27KT 33/14 A2981 RMK A01 T03290142  RH  032%=      5-min Rain = 0
KEA1 232100Z 17023KT 33/14 A298 RMK A01 T03320143  RH  032%=      5-min Rain = 0
KEA1 232101Z 17024G30KT 33/14 A298 RMK A01 T03310142  RH  032%=      5-min Rain = 0
KEA1 232102Z 18023KT 33/14 A298 RMK A01 T03300139  RH  032%=      5-min Rain = 0
KEA1 232103Z 17025G31KT 33/14 A298 RMK A01 T03310139  RH  031%=      5-min Rain = 0
KEA1 232104Z 17024KT 33/14 A298 RMK A01 T03300135  RH  031%=      5-min Rain = 0
KEA1 232105Z 16022G27KT 33/14 A298 RMK A01 T03280139  RH  032%=      5-min Rain = 0
KEA1 232106Z 16020G25KT 33/14 A298 RMK A01 T03290139  RH  032%=      5-min Rain = 0
KEA1 232107Z 16020KT 33/14 A298 RMK A01 T03300138  RH  031%=      5-min Rain = 0
KEA1 232108Z 15021G28KT 33/14 A298 RMK A01 T03320139  RH  031%=      5-min Rain = 0
KEA1 232109Z 17019G26KT 33/14 A298 RMK A01 T03340140  RH  031%=      5-min Rain = 0
KEA1 232110Z 16023G32KT 34/14 A298 RMK A01 T03360139  RH  030%=      5-min Rain = 0
KEA1 232111Z 17022KT 33/13 A298 RMK A01 T03340132  RH  029%=      5-min Rain = 0
KEA1 232112Z 18022KT 33/13 A298 RMK A01 T03300132  RH  030%=      5-min Rain = 0
KEA1 232113Z 19024KT 33/13 A298 RMK A01 T03300132  RH  030%=      5-min Rain = 0
KEA1 232114Z 19023G29KT 33/13 A298 RMK A01 T03300134  RH  031%=      5-min Rain = 0
KEA1 232115Z 19025KT 33/13 A2979 RMK A01 T03250133  RH  031%=      5-min Rain = 0
KEA1 232116Z 18024KT 32/14 A298 RMK A01 T03190135  RH  033%=      5-min Rain = 0
KEA1 232117Z 17020G27KT 32/14 A298 RMK A01 T03160136  RH  033%=      5-min Rain = 0
KEA1 232118Z 17023G29KT 32/13 A298 RMK A01 T03160133  RH  033%=      5-min Rain = 0
KEA1 232119Z 17025G30KT 32/13 A298 RMK A01 T03190127  RH  031%=      5-min Rain = 0
KEA1 232120Z 18020KT 32/13 A298 RMK A01 T03220128  RH  031%=      5-min Rain = 0
KEA1 232121Z 17020KT 32/13 A298 RMK A01 T03210128  RH  031%=      5-min Rain = 0
KEA1 232122Z 17021G27KT 32/13 A298 RMK A01 T03190131  RH  032%=      5-min Rain = 0
KEA1 232123Z 18021KT 32/13 A298 RMK A01 T03180133  RH  032%=      5-min Rain = 0
KEA1 232124Z 17021KT 32/13 A298 RMK A01 T03180134  RH  033%=      5-min Rain = 0
KEA1 232125Z 17021KT 32/14 A298 RMK A01 T03200135  RH  032%=      5-min Rain = 0
KEA1 232126Z 18020G25KT 32/14 A298 RMK A01 T03230137  RH  032%=      5-min Rain = 0
KEA1 232127Z 16018KT 33/14 A298 RMK A01 T03270139  RH  032%=      5-min Rain = 0
KEA1 232128Z 16021KT 33/14 A298 RMK A01 T03300140  RH  032%=      5-min Rain = 0
KEA1 232129Z 17023G30KT 33/14 A298 RMK A01 T03310140  RH  032%=      5-min Rain = 0
KEA1 232130Z 17029KT 33/14 A2979 RMK A01 T03260136  RH  032%=      5-min Rain = 0
KEA1 232131Z 17026KT 32/14 A298 RMK A01 T03200135  RH  032%=      5-min Rain = 0
KEA1 232132Z 18023G29KT 32/14 A2979 RMK A01 T03170137  RH  033%=      5-min Rain = 0
KEA1 232133Z 17022G28KT 32/14 A298 RMK A01 T03150138  RH  034%=      5-min Rain = 0
KEA1 232134Z 17018G23KT 32/14 A298 RMK A01 T03150140  RH  035%=      5-min Rain = 0
KEA1 232135Z 17022G27KT 32/14 A2979 RMK A01 T03200142  RH  034%=      5-min Rain = 0
KEA1 232136Z 16022KT 32/14 A2979 RMK A01 T03230142  RH  033%=      5-min Rain = 0
KEA1 232137Z 16021KT 33/14 A298 RMK A01 T03250141  RH  033%=      5-min Rain = 0
KEA1 232138Z 16017G23KT 33/14 A298 RMK A01 T03250142  RH  033%=      5-min Rain = 0
KEA1 232139Z 16018G24KT 33/15 A298 RMK A01 T03270148  RH  034%=      5-min Rain = 0
KEA1 232140Z 17024KT 33/15 A2979 RMK A01 T03290147  RH  033%=      5-min Rain = 0
KEA1 232141Z 18020KT 33/15 A2979 RMK A01 T03300146  RH  033%=      5-min Rain = 0
KEA1 232142Z 17022KT 33/15 A2979 RMK A01 T03310146  RH  033%=      5-min Rain = 0
KEA1 232143Z 18020G25KT 33/14 A2979 RMK A01 T03330142  RH  032%=      5-min Rain = 0
KEA1 232144Z 18019KT 33/14 A2979 RMK A01 T03310138  RH  031%=      5-min Rain = 0
KEA1 232145Z 17017KT 33/14 A2979 RMK A01 T03280140  RH  032%=      5-min Rain = 0
KEA1 232146Z 17014KT 33/15 A2979 RMK A01 T03290146  RH  033%=      5-min Rain = 0
KEA1 232147Z 16021G27KT 33/15 A2979 RMK A01 T03340145  RH  032%=      5-min Rain = 0
KEA1 232148Z 17020G26KT 33/15 A2979 RMK A01 T03330145  RH  032%=      5-min Rain = 0
KEA1 232149Z 17021KT 33/15 A2979 RMK A01 T03300145  RH  033%=      5-min Rain = 0
KEA1 232150Z 18023KT 33/14 A2979 RMK A01 T03280144  RH  033%=      5-min Rain = 0
KEA1 232151Z 17020KT 33/14 A2979 RMK A01 T03250144  RH  033%=      5-min Rain = 0
KEA1 232152Z 18019G24KT 32/15 A2979 RMK A01 T03230146  RH  034%=      5-min Rain = 0
KEA1 232153Z 17020G25KT 33/15 A2979 RMK A01 T03260150  RH  035%=      5-min Rain = 0
KEA1 232154Z 17022KT 33/15 A2979 RMK A01 T03270146  RH  034%=      5-min Rain = 0
KEA1 232155Z 16017KT 32/14 A2979 RMK A01 T03210144  RH  034%=      5-min Rain = 0
KEA1 232156Z 15015KT 32/15 A2979 RMK A01 T03190145  RH  035%=      5-min Rain = 0
KEA1 232157Z 17016G24KT 32/15 A2979 RMK A01 T03190146  RH  035%=      5-min Rain = 0
KEA1 232158Z 18018KT 32/14 A2979 RMK A01 T03220143  RH  034%=      5-min Rain = 0
KEA1 232159Z 20018KT 32/15 A2979 RMK A01 T03220145  RH  034%=      5-min Rain = 0
KEA1 232200Z 19018KT 32/14 A2978 RMK A01 T03210141  RH  034%=      5-min Rain = 0
KEA1 232201Z 19020KT 32/14 A2978 RMK A01 T03190141  RH  034%=      5-min Rain = 0
KEA1 232202Z 19016KT 32/14 A2978 RMK A01 T03170139  RH  034%=      5-min Rain = 0
KEA1 232203Z 18022G30KT 32/14 A2978 RMK A01 T03160143  RH  035%=      5-min Rain = 0
KEA1 232204Z 17021KT 31/14 A2978 RMK A01 T03140143  RH  035%=      5-min Rain = 0
KEA1 232205Z 18017KT 31/15 A2979 RMK A01 T03110145  RH  036%=      5-min Rain = 0
KEA1 232206Z 17022G29KT 31/15 A2979 RMK A01 T03110146  RH  037%=      5-min Rain = 0
KEA1 232207Z 16021G27KT 31/15 A2979 RMK A01 T03110149  RH  038%=      5-min Rain = 0
KEA1 232208Z 17022G28KT 31/15 A2979 RMK A01 T03100153  RH  039%=      5-min Rain = 0
KEA1 232209Z 17024G31KT 31/16 A2979 RMK A01 T03090156  RH  040%=      5-min Rain = 0
KEA1 232210Z 16029G35KT 31/16 A2979 RMK A01 T03100159  RH  040%=      5-min Rain = 0
KEA1 232211Z 15027G32KT 31/16 A2979 RMK A01 T03120158  RH  039%=      5-min Rain = 0
KEA1 232212Z 16025G33KT 32/16 A2979 RMK A01 T03150159  RH  039%=      5-min Rain = 0
KEA1 232213Z 16028KT 32/16 A2979 RMK A01 T03150159  RH  039%=      5-min Rain = 0
KEA1 232214Z 16024G30KT 31/16 A298 RMK A01 T03140161  RH  040%=      5-min Rain = 0
KEA1 232215Z 16022KT 31/16 A298 RMK A01 T03130160  RH  040%=      5-min Rain = 0
KEA1 232216Z 15022G28KT 31/16 A298 RMK A01 T03110162  RH  041%=      5-min Rain = 0
KEA1 232217Z 16022G28KT 31/16 A2979 RMK A01 T03090163  RH  041%=      5-min Rain = 0
KEA1 232218Z 16024G29KT 31/16 A2979 RMK A01 T03060164  RH  042%=      5-min Rain = 0
KEA1 232219Z 16027G32KT 30/16 A2979 RMK A01 T03030163  RH  043%=      5-min Rain = 0
KEA1 232220Z 16030G35KT 30/16 A2979 RMK A01 T03010163  RH  043%=      5-min Rain = 0
KEA1 232221Z 16026G32KT 30/17 A2979 RMK A01 T03010165  RH  044%=      5-min Rain = 0
KEA1 232222Z 16025KT 30/17 A298 RMK A01 T03020166  RH  044%=      5-min Rain = 0
KEA1 232223Z 16028KT 30/17 A2979 RMK A01 T03020167  RH  044%=      5-min Rain = 0
KEA1 232224Z 16025G30KT 30/17 A2979 RMK A01 T03030168  RH  045%=      5-min Rain = 0
KEA1 232225Z 16028G33KT 31/17 A2979 RMK A01 T03060168  RH  044%=      5-min Rain = 0
KEA1 232226Z 16026G33KT 31/17 A2979 RMK A01 T03070168  RH  043%=      5-min Rain = 0
KEA1 232227Z 16025G30KT 31/17 A2979 RMK A01 T03070168  RH  043%=      5-min Rain = 0
KEA1 232228Z 16025G30KT 31/17 A2979 RMK A01 T03080169  RH  043%=      5-min Rain = 0
KEA1 232229Z 16024G31KT 31/17 A2979 RMK A01 T03080168  RH  043%=      5-min Rain = 0
KEA1 232230Z 15024G29KT 31/17 A2979 RMK A01 T03070169  RH  044%=      5-min Rain = 0
KEA1 232231Z 15022KT 30/17 A2979 RMK A01 T03040170  RH  044%=      5-min Rain = 0
KEA1 232232Z 15023KT 30/17 A298 RMK A01 T03020171  RH  045%=      5-min Rain = 0
KEA1 232233Z 15024G30KT 30/17 A2979 RMK A01 T03030171  RH  045%=      5-min Rain = 0
KEA1 232234Z 16026KT 30/17 A298 RMK A01 T03040170  RH  045%=      5-min Rain = 0
KEA1 232235Z 16024G30KT 30/17 A298 RMK A01 T03030170  RH  045%=      5-min Rain = 0
KEA1 232236Z 17018G25KT 30/17 A298 RMK A01 T03030172  RH  045%=      5-min Rain = 0
KEA1 232237Z 16019G24KT 31/17 A298 RMK A01 T03050174  RH  046%=      5-min Rain = 0
KEA1 232238Z 16024KT 31/17 A298 RMK A01 T03060172  RH  045%=      5-min Rain = 0
KEA1 232239Z 15026KT 31/17 A298 RMK A01 T03050172  RH  045%=      5-min Rain = 0
KEA1 232240Z 15025G30KT 30/17 A298 RMK A01 T03040172  RH  045%=      5-min Rain = 0
KEA1 232241Z 16024G29KT 30/17 A298 RMK A01 T03020173  RH  046%=      5-min Rain = 0
KEA1 232242Z 16027G34KT 30/17 A298 RMK A01 T03030171  RH  045%=      5-min Rain = 0
KEA1 232243Z 16029G34KT 30/17 A2979 RMK A01 T03010169  RH  045%=      5-min Rain = 0
KEA1 232244Z 16029G35KT 30/17 A2979 RMK A01 T02970168  RH  046%=      5-min Rain = 0
KEA1 232245Z 16031G37KT 29/17 A2979 RMK A01 T02940167  RH  046%=      5-min Rain = 0
KEA1 232246Z 16029KT 29/17 A2979 RMK A01 T02940168  RH  047%=      5-min Rain = 0
KEA1 232247Z 17031G36KT 30/17 A2979 RMK A01 T02970169  RH  046%=      5-min Rain = 0
KEA1 232248Z 16030G37KT 30/17 A2979 RMK A01 T03000170  RH  046%=      5-min Rain = 0
KEA1 232249Z 15026G31KT 30/17 A2979 RMK A01 T03000169  RH  045%=      5-min Rain = 0
KEA1 232250Z 15028KT 30/17 A2979 RMK A01 T03010171  RH  046%=      5-min Rain = 0
KEA1 232251Z 15025KT 30/17 A298 RMK A01 T03010170  RH  045%=      5-min Rain = 0
KEA1 232252Z 16027G35KT 30/17 A298 RMK A01 T03010171  RH  046%=      5-min Rain = 0
KEA1 232253Z 17023KT 30/17 A298 RMK A01 T03020172  RH  046%=      5-min Rain = 0
KEA1 232254Z 17027G34KT 30/17 A298 RMK A01 T03030173  RH  045%=      5-min Rain = 0
KEA1 232255Z 16029G36KT 30/17 A2979 RMK A01 T03030170  RH  045%=      5-min Rain = 0
KEA1 232256Z 16026G32KT 30/17 A298 RMK A01 T02990169  RH  046%=      5-min Rain = 0
KEA1 232257Z 16023G28KT 30/17 A298 RMK A01 T02970169  RH  046%=      5-min Rain = 0
KEA1 232258Z 17023G29KT 29/17 A298 RMK A01 T02940170  RH  047%=      5-min Rain = 0
KEA1 232259Z 16026G32KT 29/17 A298 RMK A01 T02920169  RH  047%=      5-min Rain = 0
KEA1 232300Z 15026G32KT 29/17 A298 RMK A01 T02910169  RH  048%=      5-min Rain = 0
KEA1 232301Z 16025G30KT 29/17 A298 RMK A01 T02900169  RH  048%=      5-min Rain = 0
KEA1 232302Z 16027KT 29/17 A298 RMK A01 T02910169  RH  048%=      5-min Rain = 0
KEA1 232303Z 16024G30KT 29/17 A298 RMK A01 T02940171  RH  047%=      5-min Rain = 0
KEA1 232304Z 16027KT 30/17 A298 RMK A01 T02980171  RH  046%=      5-min Rain = 0
KEA1 232305Z 16025G31KT 30/17 A298 RMK A01 T02990172  RH  046%=      5-min Rain = 0
KEA1 232306Z 15025G30KT 30/17 A298 RMK A01 T03000172  RH  046%=      5-min Rain = 0
KEA1 232307Z 15028KT 30/17 A298 RMK A01 T03010172  RH  046%=      5-min Rain = 0
KEA1 232308Z 15023KT 30/17 A298 RMK A01 T03010173  RH  046%=      5-min Rain = 0
KEA1 232309Z 15023KT 30/18 A298 RMK A01 T03030175  RH  047%=      5-min Rain = 0
KEA1 232310Z 15027G34KT 30/17 A298 RMK A01 T03030174  RH  046%=      5-min Rain = 0
KEA1 232311Z 15028G34KT 30/17 A298 RMK A01 T03020173  RH  046%=      5-min Rain = 0
KEA1 232312Z 16031G37KT 30/17 A298 RMK A01 T02990170  RH  046%=      5-min Rain = 0
KEA1 232313Z 16029G34KT 30/17 A298 RMK A01 T02950169  RH  047%=      5-min Rain = 0
KEA1 232314Z 16023G28KT 29/17 A298 RMK A01 T02920170  RH  048%=      5-min Rain = 0
KEA1 232315Z 16026G31KT 29/17 A298 RMK A01 T02900170  RH  048%=      5-min Rain = 0
KEA1 232316Z 15026G31KT 29/17 A298 RMK A01 T02920171  RH  048%=      5-min Rain = 0
KEA1 232317Z 14027KT 30/17 A298 RMK A01 T02950171  RH  047%=      5-min Rain = 0
KEA1 232318Z 16023G29KT 30/17 A298 RMK A01 T02970172  RH  047%=      5-min Rain = 0
KEA1 232319Z 16027G32KT 30/17 A2979 RMK A01 T02980172  RH  047%=      5-min Rain = 0
KEA1 232320Z 15029G36KT 30/17 A2979 RMK A01 T02990171  RH  046%=      5-min Rain = 0
KEA1 232321Z 15029KT 30/17 A2979 RMK A01 T02980169  RH  046%=      5-min Rain = 0
KEA1 232322Z 15030G36KT 30/17 A2979 RMK A01 T02960168  RH  046%=      5-min Rain = 0
KEA1 232323Z 15033KT 30/17 A2979 RMK A01 T02950168  RH  046%=      5-min Rain = 0
KEA1 232324Z 15032G37KT 29/17 A2979 RMK A01 T02930167  RH  047%=      5-min Rain = 0
KEA1 232325Z 15033G39KT 29/17 A2979 RMK A01 T02920168  RH  047%=      5-min Rain = 0
KEA1 232326Z 16031G37KT 29/17 A2979 RMK A01 T02910168  RH  047%=      5-min Rain = 0
KEA1 232327Z 16033G39KT 29/17 A2979 RMK A01 T02910167  RH  047%=      5-min Rain = 0
KEA1 232328Z 15031KT 29/17 A2979 RMK A01 T02900166  RH  047%=      5-min Rain = 0
KEA1 232329Z 16027G34KT 29/17 A2979 RMK A01 T02900167  RH  047%=      5-min Rain = 0
KEA1 232330Z 15030G37KT 29/17 A2979 RMK A01 T02910167  RH  047%=      5-min Rain = 0
KEA1 232331Z 15033KT 29/16 A2979 RMK A01 T02900164  RH  047%=      5-min Rain = 0
KEA1 232332Z 15031KT 29/16 A298 RMK A01 T02890164  RH  047%=      5-min Rain = 0
KEA1 232333Z 15030G36KT 29/17 A2979 RMK A01 T02890165  RH  047%=      5-min Rain = 0
KEA1 232334Z 16026G32KT 29/17 A298 RMK A01 T02890166  RH  048%=      5-min Rain = 0
KEA1 232335Z 16025G31KT 29/17 A298 RMK A01 T02890165  RH  047%=      5-min Rain = 0
KEA1 232336Z 15023KT 29/17 A298 RMK A01 T02900165  RH  047%=      5-min Rain = 0
KEA1 232337Z 14025G31KT 29/17 A298 RMK A01 T02910166  RH  047%=      5-min Rain = 0
KEA1 232338Z 15026G31KT 29/17 A298 RMK A01 T02910166  RH  047%=      5-min Rain = 0
KEA1 232339Z 15023G30KT 29/17 A298 RMK A01 T02900166  RH  047%=      5-min Rain = 0
KEA1 232340Z 15031G36KT 29/16 A2979 RMK A01 T02900162  RH  046%=      5-min Rain = 0
KEA1 232341Z 15029G34KT 29/16 A2979 RMK A01 T02880159  RH  046%=      5-min Rain = 0
KEA1 232342Z 15026G33KT 29/16 A2979 RMK A01 T02870158  RH  045%=      5-min Rain = 0
KEA1 232343Z 15025KT 29/16 A2979 RMK A01 T02860155  RH  045%=      5-min Rain = 0
KEA1 232344Z 16027G33KT 29/15 A2979 RMK A01 T02860151  RH  044%=      5-min Rain = 0
KEA1 232345Z 15028G33KT 29/14 A2979 RMK A01 T02850144  RH  042%=      5-min Rain = 0
KEA1 232346Z 15025G32KT 29/14 A2979 RMK A01 T02850143  RH  042%=      5-min Rain = 0
KEA1 232347Z 16026G32KT 29/15 A2979 RMK A01 T02850145  RH  043%=      5-min Rain = 0
KEA1 232348Z 15027KT 28/14 A2979 RMK A01 T02840142  RH  042%=      5-min Rain = 0
KEA1 232349Z 16023KT 28/14 A2979 RMK A01 T02840137  RH  041%=      5-min Rain = 0
KEA1 232350Z 16024G32KT 28/14 A2979 RMK A01 T02840137  RH  041%=      5-min Rain = 0
KEA1 232351Z 15025G30KT 28/14 A2979 RMK A01 T02840139  RH  041%=      5-min Rain = 0
KEA1 232352Z 16026G32KT 28/14 A2979 RMK A01 T02830139  RH  041%=      5-min Rain = 0
KEA1 232353Z 15026G32KT 28/14 A2979 RMK A01 T02820139  RH  041%=      5-min Rain = 0
KEA1 232354Z 15024G29KT 28/13 A2979 RMK A01 T02800134  RH  041%=      5-min Rain = 0
KEA1 232355Z 16021KT 28/14 A298 RMK A01 T02770135  RH  041%=      5-min Rain = 0
KEA1 232356Z 16025KT 28/14 A2979 RMK A01 T02760137  RH  042%=      5-min Rain = 0
KEA1 232357Z 15020G26KT 28/14 A2979 RMK A01 T02760139  RH  043%=      5-min Rain = 0
KEA1 232358Z 15026G31KT 28/14 A2979 RMK A01 T02780136  RH  041%=      5-min Rain = 0
KEA1 232359Z 15025G32KT 28/14 A2979 RMK A01 T02790138  RH  042%=      5-min Rain = 0
KEA1 240000Z 15028G33KT 28/14 A2979 RMK A01 T02790138  RH  042%=      5-min Rain = 0
KEA1 240001Z 15023G28KT 28/14 A298 RMK A01 T02800137  RH  042%=      5-min Rain = 0
KEA1 240002Z 15020G25KT 28/14 A298 RMK A01 T02790138  RH  042%=      5-min Rain = 0
KEA1 240003Z 15022G28KT 28/14 A298 RMK A01 T02800140  RH  042%=      5-min Rain = 0
KEA1 240004Z 15025KT 28/14 A298 RMK A01 T02800142  RH  043%=      5-min Rain = 0
KEA1 240005Z 15024G30KT 28/14 A298 RMK A01 T02790144  RH  044%=      5-min Rain = 0
KEA1 240006Z 15026KT 28/15 A298 RMK A01 T02790146  RH  044%=      5-min Rain = 0
KEA1 240007Z 16022G27KT 28/15 A298 RMK A01 T02780149  RH  045%=      5-min Rain = 0
KEA1 240008Z 15021KT 28/15 A298 RMK A01 T02780151  RH  046%=      5-min Rain = 0
KEA1 240009Z 15024G29KT 28/15 A298 RMK A01 T02770154  RH  047%=      5-min Rain = 0
KEA1 240010Z 15020G26KT 28/16 A298 RMK A01 T02770157  RH  048%=      5-min Rain = 0
KEA1 240011Z 15023KT 28/16 A298 RMK A01 T02770157  RH  048%=      5-min Rain = 0
KEA1 240012Z 15022KT 28/16 A298 RMK A01 T02760156  RH  048%=      5-min Rain = 0
KEA1 240013Z 15020KT 28/16 A298 RMK A01 T02760157  RH  048%=      5-min Rain = 0
KEA1 240014Z 15017KT 28/16 A298 RMK A01 T02760155  RH  048%=      5-min Rain = 0
KEA1 240015Z 15019KT 28/16 A298 RMK A01 T02770155  RH  047%=      5-min Rain = 0
KEA1 240016Z 15018KT 28/15 A298 RMK A01 T02770154  RH  047%=      5-min Rain = 0
KEA1 240017Z 15019KT 28/16 A298 RMK A01 T02770156  RH  048%=      5-min Rain = 0
KEA1 240018Z 15018G24KT 28/16 A298 RMK A01 T02770155  RH  048%=      5-min Rain = 0
KEA1 240019Z 16021G26KT 28/15 A298 RMK A01 T02760151  RH  046%=      5-min Rain = 0
KEA1 240020Z 15022KT 28/15 A298 RMK A01 T02760148  RH  046%=      5-min Rain = 0
KEA1 240021Z 15018KT 28/15 A2981 RMK A01 T02760146  RH  045%=      5-min Rain = 0
KEA1 240022Z 15018G26KT 28/14 A2981 RMK A01 T02760144  RH  044%=      5-min Rain = 0
KEA1 240023Z 16022KT 28/14 A2981 RMK A01 T02760139  RH  043%=      5-min Rain = 0
KEA1 240024Z 16018KT 28/14 A2981 RMK A01 T02760138  RH  043%=      5-min Rain = 0
KEA1 240025Z 16017KT 28/14 A2981 RMK A01 T02760136  RH  042%=      5-min Rain = 0
KEA1 240026Z 15016KT 28/14 A2981 RMK A01 T02760136  RH  042%=      5-min Rain = 0
KEA1 240027Z 16014KT 28/13 A298 RMK A01 T02760134  RH  042%=      5-min Rain = 0
KEA1 240028Z 15016G21KT 28/13 A298 RMK A01 T02770133  RH  041%=      5-min Rain = 0
KEA1 240029Z 15018G24KT 28/13 A298 RMK A01 T02770130  RH  040%=      5-min Rain = 0
KEA1 240030Z 16019G25KT 28/13 A298 RMK A01 T02770130  RH  040%=      5-min Rain = 0
KEA1 240031Z 16021KT 28/13 A298 RMK A01 T02770126  RH  039%=      5-min Rain = 0
KEA1 240032Z 16020KT 28/13 A2981 RMK A01 T02770125  RH  039%=      5-min Rain = 0
KEA1 240033Z 16019G24KT 28/13 A2981 RMK A01 T02760126  RH  039%=      5-min Rain = 0
KEA1 240034Z 16022KT 28/13 A2981 RMK A01 T02760125  RH  039%=      5-min Rain = 0
KEA1 240035Z 15020KT 28/13 A2981 RMK A01 T02760126  RH  039%=      5-min Rain = 0
KEA1 240036Z 15019G24KT 28/13 A2982 RMK A01 T02770128  RH  040%=      5-min Rain = 0
KEA1 240037Z 15019KT 28/13 A2982 RMK A01 T02760128  RH  040%=      5-min Rain = 0
KEA1 240038Z 15019KT 28/13 A2982 RMK A01 T02770130  RH  040%=      5-min Rain = 0
KEA1 240039Z 15022KT 28/13 A2982 RMK A01 T02760128  RH  040%=      5-min Rain = 0
KEA1 240040Z 14019KT 28/13 A2982 RMK A01 T02750127  RH  040%=      5-min Rain = 0
KEA1 240041Z 14019KT 28/12 A2982 RMK A01 T02750124  RH  039%=      5-min Rain = 0
KEA1 240042Z 14021G27KT 27/12 A2982 RMK A01 T02740120  RH  039%=      5-min Rain = 0
KEA1 240043Z 14020KT 27/12 A2982 RMK A01 T02730117  RH  038%=      5-min Rain = 0
KEA1 240044Z 15018KT 27/12 A2982 RMK A01 T02730119  RH  038%=      5-min Rain = 0
KEA1 240045Z 15020G26KT 27/12 A2982 RMK A01 T02730119  RH  038%=      5-min Rain = 0
KEA1 240046Z 14018G23KT 27/12 A2982 RMK A01 T02720120  RH  039%=      5-min Rain = 0
KEA1 240047Z 14023KT 27/12 A2982 RMK A01 T02710124  RH  040%=      5-min Rain = 0
KEA1 240048Z 14020G25KT 27/13 A2982 RMK A01 T02690131  RH  042%=      5-min Rain = 0
KEA1 240049Z 14021G26KT 27/14 A2982 RMK A01 T02680142  RH  046%=      5-min Rain = 0
KEA1 240050Z 15020KT 27/15 A2983 RMK A01 T02650149  RH  049%=      5-min Rain = 0
KEA1 240051Z 15017KT 26/15 A2983 RMK A01 T02630153  RH  051%=      5-min Rain = 0
KEA1 240052Z 15016KT 26/16 A2983 RMK A01 T02620155  RH  052%=      5-min Rain = 0
KEA1 240053Z 15020KT 26/15 A2983 RMK A01 T02620154  RH  052%=      5-min Rain = 0
KEA1 240054Z 14021KT 26/15 A2983 RMK A01 T02610152  RH  051%=      5-min Rain = 0
KEA1 240055Z 14017KT 26/15 A2983 RMK A01 T02600154  RH  052%=      5-min Rain = 0
KEA1 240056Z 14014KT 26/16 A2983 RMK A01 T02600155  RH  052%=      5-min Rain = 0
KEA1 240057Z 14019G24KT 26/16 A2983 RMK A01 T02590155  RH  052%=      5-min Rain = 0
KEA1 240058Z 14018KT 26/15 A2983 RMK A01 T02590154  RH  052%=      5-min Rain = 0
KEA1 240059Z 15019KT 26/15 A2982 RMK A01 T02590152  RH  052%=      5-min Rain = 0
KEA1 240100Z 15020G25KT 26/15 A2982 RMK A01 T02580153  RH  052%=      5-min Rain = 0
KEA1 240101Z 14020KT 26/15 A2982 RMK A01 T02570153  RH  053%=      5-min Rain = 0
KEA1 240102Z 14018KT 26/15 A2982 RMK A01 T02560153  RH  053%=      5-min Rain = 0
KEA1 240103Z 15020KT 26/16 A2982 RMK A01 T02560155  RH  054%=      5-min Rain = 0
KEA1 240104Z 15015G20KT 26/16 A2982 RMK A01 T02550156  RH  054%=      5-min Rain = 0
KEA1 240105Z 15015KT 26/16 A2982 RMK A01 T02550158  RH  055%=      5-min Rain = 0
KEA1 240106Z 14020G26KT 26/16 A2983 RMK A01 T02550159  RH  055%=      5-min Rain = 0
KEA1 240107Z 14022KT 26/16 A2983 RMK A01 T02550160  RH  056%=      5-min Rain = 0
KEA1 240108Z 14020KT 25/16 A2983 RMK A01 T02540161  RH  056%=      5-min Rain = 0
KEA1 240109Z 14019KT 25/16 A2983 RMK A01 T02540163  RH  057%=      5-min Rain = 0
KEA1 240110Z 14018G23KT 25/16 A2983 RMK A01 T02540164  RH  058%=      5-min Rain = 0
KEA1 240111Z 14019G24KT 25/17 A2984 RMK A01 T02530165  RH  058%=      5-min Rain = 0
KEA1 240112Z 14016KT 25/17 A2984 RMK A01 T02530166  RH  058%=      5-min Rain = 0
KEA1 240113Z 14015KT 25/17 A2984 RMK A01 T02530166  RH  059%=      5-min Rain = 0
KEA1 240114Z 14015KT 25/17 A2983 RMK A01 T02530167  RH  059%=      5-min Rain = 0
KEA1 240115Z 14016KT 25/17 A2983 RMK A01 T02530168  RH  059%=      5-min Rain = 0
KEA1 240116Z 14018G23KT 25/17 A2983 RMK A01 T02520168  RH  059%=      5-min Rain = 0
KEA1 240117Z 14021KT 25/17 A2983 RMK A01 T02520168  RH  060%=      5-min Rain = 0
KEA1 240118Z 14021KT 25/17 A2983 RMK A01 T02500168  RH  060%=      5-min Rain = 0
KEA1 240119Z 14019G24KT 25/17 A2983 RMK A01 T02490166  RH  060%=      5-min Rain = 0
KEA1 240120Z 14021KT 25/16 A2982 RMK A01 T02480164  RH  060%=      5-min Rain = 0
KEA1 240121Z 15016KT 25/16 A2983 RMK A01 T02480164  RH  060%=      5-min Rain = 0
KEA1 240122Z 15017KT 25/16 A2983 RMK A01 T02480161  RH  058%=      5-min Rain = 0
KEA1 240123Z 14016KT 25/16 A2983 RMK A01 T02480160  RH  058%=      5-min Rain = 0
KEA1 240124Z 14017KT 25/16 A2983 RMK A01 T02480161  RH  058%=      5-min Rain = 0
KEA1 240125Z 14017KT 25/16 A2983 RMK A01 T02470162  RH  059%=      5-min Rain = 0
KEA1 240126Z 15016KT 25/16 A2983 RMK A01 T02470162  RH  059%=      5-min Rain = 0
KEA1 240127Z 15018KT 25/16 A2984 RMK A01 T02470164  RH  060%=      5-min Rain = 0
KEA1 240128Z 15016KT 25/16 A2984 RMK A01 T02470164  RH  060%=      5-min Rain = 0
KEA1 240129Z 15017KT 25/16 A2985 RMK A01 T02460162  RH  060%=      5-min Rain = 0
KEA1 240130Z 15018G23KT 25/16 A2985 RMK A01 T02470161  RH  059%=      5-min Rain = 0
KEA1 240131Z 15018KT 25/16 A2985 RMK A01 T02460160  RH  059%=      5-min Rain = 0
KEA1 240132Z 15017KT 25/16 A2985 RMK A01 T02460160  RH  059%=      5-min Rain = 0
KEA1 240133Z 14016G21KT 25/16 A2984 RMK A01 T02460160  RH  059%=      5-min Rain = 0
KEA1 240134Z 15016KT 25/16 A2984 RMK A01 T02450160  RH  059%=      5-min Rain = 0
KEA1 240135Z 15017KT 25/16 A2984 RMK A01 T02450160  RH  059%=      5-min Rain = 0
KEA1 240136Z 16016KT 24/16 A2984 RMK A01 T02440159  RH  059%=      5-min Rain = 0
KEA1 240137Z 16017KT 24/16 A2984 RMK A01 T02440159  RH  059%=      5-min Rain = 0
KEA1 240138Z 15016KT 24/16 A2984 RMK A01 T02440158  RH  059%=      5-min Rain = 0
KEA1 240139Z 16015KT 24/16 A2984 RMK A01 T02440159  RH  059%=      5-min Rain = 0
KEA1 240140Z 16018G23KT 24/16 A2984 RMK A01 T02440158  RH  059%=      5-min Rain = 0
KEA1 240141Z 16016G21KT 24/16 A2984 RMK A01 T02440156  RH  058%=      5-min Rain = 0
KEA1 240142Z 16016KT 24/16 A2984 RMK A01 T02430156  RH  058%=      5-min Rain = 0
KEA1 240143Z 16018KT 24/15 A2984 RMK A01 T02420154  RH  058%=      5-min Rain = 0
KEA1 240144Z 17016KT 24/15 A2984 RMK A01 T02420153  RH  058%=      5-min Rain = 0
KEA1 240145Z 17014KT 24/15 A2984 RMK A01 T02410153  RH  058%=      5-min Rain = 0
KEA1 240146Z 17016KT 24/15 A2984 RMK A01 T02410150  RH  057%=      5-min Rain = 0
KEA1 240147Z 16017KT 24/15 A2984 RMK A01 T02410147  RH  056%=      5-min Rain = 0
KEA1 240148Z 17016KT 24/15 A2985 RMK A01 T02400146  RH  056%=      5-min Rain = 0
KEA1 240149Z 17014KT 24/15 A2985 RMK A01 T02400146  RH  056%=      5-min Rain = 0
KEA1 240150Z 16015KT 24/15 A2985 RMK A01 T02390146  RH  056%=      5-min Rain = 0
KEA1 240151Z 17013KT 24/15 A2985 RMK A01 T02390146  RH  056%=      5-min Rain = 0
KEA1 240152Z 17012KT 24/15 A2985 RMK A01 T02380147  RH  056%=      5-min Rain = 0
KEA1 240153Z 16014KT 24/15 A2985 RMK A01 T02380147  RH  057%=      5-min Rain = 0
KEA1 240154Z 16011KT 24/15 A2985 RMK A01 T02370147  RH  057%=      5-min Rain = 0
KEA1 240155Z 16011KT 24/15 A2984 RMK A01 T02370147  RH  057%=      5-min Rain = 0
KEA1 240156Z 16010KT 24/15 A2984 RMK A01 T02370148  RH  057%=      5-min Rain = 0
KEA1 240157Z 16012KT 24/15 A2984 RMK A01 T02360148  RH  058%=      5-min Rain = 0
KEA1 240158Z 16011KT 24/15 A2984 RMK A01 T02360148  RH  058%=      5-min Rain = 0
KEA1 240159Z 16011KT 24/15 A2984 RMK A01 T02360149  RH  058%=      5-min Rain = 0
KEA1 240200Z 16015KT 24/15 A2985 RMK A01 T02350149  RH  058%=      5-min Rain = 0
KEA1 240201Z 15011KT 24/15 A2985 RMK A01 T02360150  RH  059%=      5-min Rain = 0
KEA1 240202Z 15011KT 24/15 A2985 RMK A01 T02350151  RH  059%=      5-min Rain = 0
KEA1 240203Z 14013KT 23/15 A2985 RMK A01 T02340152  RH  060%=      5-min Rain = 0
KEA1 240204Z 14014KT 23/15 A2986 RMK A01 T02330154  RH  061%=      5-min Rain = 0
KEA1 240205Z 14014KT 23/16 A2986 RMK A01 T02330155  RH  061%=      5-min Rain = 0
KEA1 240206Z 15014KT 23/16 A2986 RMK A01 T02330156  RH  062%=      5-min Rain = 0
KEA1 240207Z 15013KT 23/16 A2987 RMK A01 T02320157  RH  063%=      5-min Rain = 0
KEA1 240208Z 14014KT 23/16 A2987 RMK A01 T02310158  RH  064%=      5-min Rain = 0
KEA1 240209Z 14013KT 23/16 A2987 RMK A01 T02310160  RH  064%=      5-min Rain = 0
KEA1 240210Z 14013KT 23/16 A2987 RMK A01 T02300161  RH  065%=      5-min Rain = 0
KEA1 240211Z 14014KT 23/16 A2987 RMK A01 T02290163  RH  066%=      5-min Rain = 0
KEA1 240212Z 14012G17KT 23/16 A2987 RMK A01 T02290164  RH  067%=      5-min Rain = 0
KEA1 240213Z 14013KT 23/17 A2987 RMK A01 T02280166  RH  068%=      5-min Rain = 0
KEA1 240214Z 14013KT 23/17 A2987 RMK A01 T02270166  RH  068%=      5-min Rain = 0
KEA1 240215Z 15010KT 23/17 A2987 RMK A01 T02270167  RH  069%=      5-min Rain = 0
KEA1 240216Z 15012G17KT 23/17 A2987 RMK A01 T02260168  RH  070%=      5-min Rain = 0
KEA1 240217Z 15016KT 23/17 A2987 RMK A01 T02260171  RH  071%=      5-min Rain = 0
KEA1 240218Z 15017KT 23/17 A2987 RMK A01 T02250174  RH  072%=      5-min Rain = 0
KEA1 240219Z 14017KT 23/17 A2987 RMK A01 T02250173  RH  072%=      5-min Rain = 0
KEA1 240220Z 14017KT 23/17 A2987 RMK A01 T02250171  RH  072%=      5-min Rain = 0
KEA1 240221Z 14017KT 22/17 A2987 RMK A01 T02240167  RH  070%=      5-min Rain = 0
KEA1 240222Z 15017KT 22/16 A2987 RMK A01 T02230161  RH  068%=      5-min Rain = 0
KEA1 240223Z 14016KT 22/16 A2987 RMK A01 T02220158  RH  067%=      5-min Rain = 0
KEA1 240224Z 15016KT 22/16 A2988 RMK A01 T02210158  RH  068%=      5-min Rain = 0
KEA1 240225Z 15014KT 22/16 A2988 RMK A01 T02200158  RH  068%=      5-min Rain = 0
KEA1 240226Z 14016KT 22/16 A2988 RMK A01 T02180158  RH  069%=      5-min Rain = 0
KEA1 240227Z 14017KT 22/16 A2988 RMK A01 T02170158  RH  069%=      5-min Rain = 0
KEA1 240228Z 14019KT 22/16 A2988 RMK A01 T02170155  RH  068%=      5-min Rain = 0
KEA1 240229Z 15018KT 22/15 A2989 RMK A01 T02160154  RH  068%=      5-min Rain = 0
KEA1 240230Z 14018KT 22/15 A2988 RMK A01 T02150153  RH  068%=      5-min Rain = 0
KEA1 240231Z 14015G21KT 21/15 A2988 RMK A01 T02140149  RH  066%=      5-min Rain = 0
KEA1 240232Z 13018KT 21/14 A2987 RMK A01 T02130144  RH  064%=      5-min Rain = 0
KEA1 240233Z 14017KT 21/14 A2987 RMK A01 T02120141  RH  064%=      5-min Rain = 0
KEA1 240234Z 14016G22KT 21/14 A2987 RMK A01 T02100139  RH  064%=      5-min Rain = 0
KEA1 240235Z 14018G23KT 21/14 A2987 RMK A01 T02080138  RH  064%=      5-min Rain = 0
KEA1 240236Z 14018KT 21/14 A2988 RMK A01 T02070138  RH  065%=      5-min Rain = 0
KEA1 240237Z 14015KT 21/14 A2988 RMK A01 T02060138  RH  065%=      5-min Rain = 0
KEA1 240238Z 15015KT 21/14 A2989 RMK A01 T02050139  RH  066%=      5-min Rain = 0
KEA1 240239Z 15016KT 20/14 A2988 RMK A01 T02040139  RH  066%=      5-min Rain = 0
KEA1 240240Z 14016KT 20/14 A2988 RMK A01 T02040139  RH  066%=      5-min Rain = 0
KEA1 240241Z 15019KT 20/14 A2988 RMK A01 T02040139  RH  066%=      5-min Rain = 0
KEA1 240242Z 15018KT 20/14 A2988 RMK A01 T02040138  RH  066%=      5-min Rain = 0
KEA1 240243Z 15018KT 20/14 A2989 RMK A01 T02030137  RH  066%=      5-min Rain = 0
KEA1 240244Z 15020G26KT 20/14 A2989 RMK A01 T02040137  RH  065%=      5-min Rain = 0
KEA1 240245Z 15017KT 20/14 A2989 RMK A01 T02030135  RH  065%=      5-min Rain = 0
KEA1 240246Z 16022KT 20/13 A2988 RMK A01 T02020134  RH  065%=      5-min Rain = 0
KEA1 240247Z 16021KT 20/13 A2988 RMK A01 T02010132  RH  064%=      5-min Rain = 0
KEA1 240248Z 15017G23KT 20/13 A2988 RMK A01 T02000132  RH  065%=      5-min Rain = 0
KEA1 240249Z 16015KT 20/13 A2988 RMK A01 T01990131  RH  065%=      5-min Rain = 0
KEA1 240250Z 15018KT 20/13 A2988 RMK A01 T01980130  RH  065%=      5-min Rain = 0
KEA1 240251Z 16018G23KT 20/13 A2989 RMK A01 T01970126  RH  064%=      5-min Rain = 0
KEA1 240252Z 15018G24KT 20/12 A2989 RMK A01 T01960124  RH  063%=      5-min Rain = 0
KEA1 240253Z 15020KT 20/12 A2989 RMK A01 T01950124  RH  063%=      5-min Rain = 0
KEA1 240254Z 16017KT 20/12 A299 RMK A01 T01950124  RH  064%=      5-min Rain = 0
KEA1 240255Z 16016G21KT 20/12 A299 RMK A01 T01950124  RH  064%=      5-min Rain = 0
KEA1 240256Z 16019KT 19/12 A299 RMK A01 T01940124  RH  064%=      5-min Rain = 0
KEA1 240257Z 16020G26KT 19/12 A299 RMK A01 T01940123  RH  063%=      5-min Rain = 0
KEA1 240258Z 16020KT 20/12 A299 RMK A01 T01950122  RH  063%=      5-min Rain = 0
KEA1 240259Z 16018KT 20/12 A299 RMK A01 T01950123  RH  063%=      5-min Rain = 0
KEA1 240300Z 16020KT 19/12 A299 RMK A01 T01940123  RH  063%=      5-min Rain = 0
KEA1 240301Z 16020KT 19/12 A2989 RMK A01 T01940123  RH  063%=      5-min Rain = 0
KEA1 240302Z 16017G23KT 19/12 A2989 RMK A01 T01940124  RH  064%=      5-min Rain = 0
KEA1 240303Z 16020KT 19/13 A2989 RMK A01 T01930125  RH  065%=      5-min Rain = 0
KEA1 240304Z 17018KT 19/13 A2989 RMK A01 T01930126  RH  065%=      5-min Rain = 0
KEA1 240305Z 17017KT 19/13 A2989 RMK A01 T01930127  RH  066%=      5-min Rain = 0
KEA1 240306Z 17017KT 19/13 A299 RMK A01 T01930128  RH  066%=      5-min Rain = 0
KEA1 240307Z 16016KT 19/13 A299 RMK A01 T01930129  RH  067%=      5-min Rain = 0
KEA1 240308Z 16016KT 19/13 A299 RMK A01 T01920129  RH  067%=      5-min Rain = 0
KEA1 240309Z 16015KT 19/13 A299 RMK A01 T01920130  RH  067%=      5-min Rain = 0
KEA1 240310Z 16014KT 19/13 A2991 RMK A01 T01920131  RH  068%=      5-min Rain = 0
KEA1 240311Z 17015KT 19/13 A2991 RMK A01 T01920132  RH  068%=      5-min Rain = 0
KEA1 240312Z 16016KT 19/13 A2991 RMK A01 T01920133  RH  068%=      5-min Rain = 0
KEA1 240313Z 16015KT 19/13 A2991 RMK A01 T01920133  RH  069%=      5-min Rain = 0
KEA1 240314Z 16018G23KT 19/13 A299 RMK A01 T01920133  RH  069%=      5-min Rain = 0
KEA1 240315Z 16016KT 19/13 A299 RMK A01 T01920133  RH  069%=      5-min Rain = 0
KEA1 240316Z 16017KT 19/13 A299 RMK A01 T01920134  RH  069%=      5-min Rain = 0
KEA1 240317Z 16016KT 19/13 A299 RMK A01 T01910133  RH  069%=      5-min Rain = 0
KEA1 240318Z 17017G22KT 19/13 A299 RMK A01 T01910132  RH  068%=      5-min Rain = 0
KEA1 240319Z 17016KT 19/13 A299 RMK A01 T01920132  RH  068%=      5-min Rain = 0
KEA1 240320Z 17019KT 19/13 A299 RMK A01 T01910131  RH  068%=      5-min Rain = 0
KEA1 240321Z 17017G22KT 19/13 A299 RMK A01 T01910131  RH  068%=      5-min Rain = 0
KEA1 240322Z 16019KT 19/13 A299 RMK A01 T01900131  RH  069%=      5-min Rain = 0
KEA1 240323Z 17016KT 19/13 A2991 RMK A01 T01900132  RH  069%=      5-min Rain = 0
KEA1 240324Z 18016KT 19/13 A2991 RMK A01 T01890133  RH  070%=      5-min Rain = 0
KEA1 240325Z 17017KT 19/14 A2991 RMK A01 T01880135  RH  071%=      5-min Rain = 0
KEA1 240326Z 18017KT 19/14 A2992 RMK A01 T01870136  RH  072%=      5-min Rain = 0
KEA1 240327Z 18018KT 19/14 A2992 RMK A01 T01860137  RH  073%=      5-min Rain = 0
KEA1 240328Z 17017G22KT 19/14 A2992 RMK A01 T01850138  RH  074%=      5-min Rain = 0
KEA1 240329Z 17014KT 19/14 A2992 RMK A01 T01850139  RH  074%=      5-min Rain = 0
KEA1 240330Z 18014KT 18/14 A2992 RMK A01 T01840139  RH  075%=      5-min Rain = 0
KEA1 240331Z 18016G21KT 18/14 A2993 RMK A01 T01840139  RH  075%=      5-min Rain = 0
KEA1 240332Z 19011KT 18/14 A2994 RMK A01 T01840139  RH  075%=      5-min Rain = 0
KEA1 240333Z 22011KT 18/14 A2994 RMK A01 T01830139  RH  076%=      5-min Rain = 0
KEA1 240334Z 24013KT 18/14 A2995 RMK A01 T01830139  RH  076%=      5-min Rain = 0
KEA1 240335Z 26010KT 18/14 A2994 RMK A01 T01840140  RH  076%=      5-min Rain = 0
KEA1 240336Z 25013KT 19/14 A2994 RMK A01 T01850139  RH  075%=      5-min Rain = 0
KEA1 240337Z 26011KT 19/14 A2994 RMK A01 T01850138  RH  074%=      5-min Rain = 0
KEA1 240338Z 26012KT 19/14 A2995 RMK A01 T01850138  RH  074%=      5-min Rain = 0
KEA1 240339Z 25015KT 19/14 A2996 RMK A01 T01860138  RH  074%=      5-min Rain = 0
KEA1 240340Z 23014KT 19/14 A2996 RMK A01 T01860138  RH  073%=      5-min Rain = 0
KEA1 240341Z 20012KT 19/14 A2996 RMK A01 T01860138  RH  073%=      5-min Rain = 0
KEA1 240342Z 19013KT 19/14 A2996 RMK A01 T01870139  RH  074%=      5-min Rain = 0
KEA1 240343Z 18018KT 19/14 A2995 RMK A01 T01870138  RH  073%=      5-min Rain = 0
KEA1 240344Z 17021KT 19/14 A2994 RMK A01 T01870137  RH  073%=      5-min Rain = 0
KEA1 240345Z 17019KT 19/14 A2994 RMK A01 T01860136  RH  072%=      5-min Rain = 0
KEA1 240346Z 17014KT 19/14 A2993 RMK A01 T01850136  RH  073%=      5-min Rain = 0
KEA1 240347Z 18015KT 18/13 A2993 RMK A01 T01840133  RH  072%=      5-min Rain = 0
KEA1 240348Z 19012KT 19/13 A2992 RMK A01 T01860132  RH  071%=      5-min Rain = 0
KEA1 240349Z 20013KT 19/13 A2992 RMK A01 T01870132  RH  070%=      5-min Rain = 0
KEA1 240350Z 22013KT 19/13 A2993 RMK A01 T01870132  RH  070%=      5-min Rain = 0
KEA1 240351Z 24015KT 19/13 A2994 RMK A01 T01870133  RH  071%=      5-min Rain = 0
KEA1 240352Z 25014KT 19/14 A2994 RMK A01 T01860135  RH  072%=      5-min Rain = 0
KEA1 240353Z 24014KT 19/13 A2994 RMK A01 T01850134  RH  072%=      5-min Rain = 0
KEA1 240354Z 23013KT 18/13 A2995 RMK A01 T01840134  RH  073%=      5-min Rain = 0
KEA1 240355Z 21015KT 18/14 A2995 RMK A01 T01830135  RH  073%=      5-min Rain = 0
KEA1 240356Z 19014KT 18/14 A2994 RMK A01 T01820135  RH  074%=      5-min Rain = 0
KEA1 240357Z 18012KT 18/13 A2994 RMK A01 T01810134  RH  074%=      5-min Rain = 0
KEA1 240358Z 17012KT 18/13 A2994 RMK A01 T01800134  RH  075%=      5-min Rain = 0
KEA1 240359Z 17014KT 18/13 A2994 RMK A01 T01790133  RH  074%=      5-min Rain = 0
KEA1 240400Z 17014KT 18/13 A2995 RMK A01 T01790132  RH  074%=      5-min Rain = 0
KEA1 240401Z 18014KT 18/13 A2996 RMK A01 T01790132  RH  074%=      5-min Rain = 0
KEA1 240402Z 18013KT 18/13 A2996 RMK A01 T01790133  RH  074%=      5-min Rain = 0
KEA1 240403Z 18017KT 18/14 A2997 RMK A01 T01780135  RH  076%=      5-min Rain = 0
KEA1 240404Z 18016KT 18/14 A2997 RMK A01 T01780135  RH  076%=      5-min Rain = 0
KEA1 240405Z 18015KT 18/14 A2997 RMK A01 T01770135  RH  076%=      5-min Rain = 0
KEA1 240406Z 19014KT 18/14 A2997 RMK A01 T01770135  RH  077%=      5-min Rain = 0
KEA1 240407Z 19013KT 18/14 A2997 RMK A01 T01770136  RH  077%=      5-min Rain = 0
KEA1 240408Z 20012KT 18/14 A2997 RMK A01 T01760136  RH  077%=      5-min Rain = 0
KEA1 240409Z 20014KT 18/14 A2997 RMK A01 T01760136  RH  078%=      5-min Rain = 0
KEA1 240410Z 20014KT 18/14 A2997 RMK A01 T01760136  RH  078%=      5-min Rain = 0
KEA1 240411Z 20014KT 18/14 A2997 RMK A01 T01760137  RH  078%=      5-min Rain = 0
KEA1 240412Z 20014KT 18/14 A2997 RMK A01 T01760136  RH  077%=      5-min Rain = 0
KEA1 240413Z 20014KT 18/14 A2997 RMK A01 T01770136  RH  077%=      5-min Rain = 0
KEA1 240414Z 20017KT 18/13 A2996 RMK A01 T01780134  RH  076%=      5-min Rain = 0
KEA1 240415Z 20017KT 18/13 A2996 RMK A01 T01790132  RH  074%=      5-min Rain = 0
KEA1 240416Z 19017G22KT 18/13 A2995 RMK A01 T01780127  RH  072%=      5-min Rain = 0
KEA1 240417Z 20019KT 18/12 A2995 RMK A01 T01770123  RH  071%=      5-min Rain = 0
KEA1 240418Z 20017G22KT 18/12 A2995 RMK A01 T01750121  RH  071%=      5-min Rain = 0
KEA1 240419Z 20016G21KT 17/12 A2995 RMK A01 T01730121  RH  071%=      5-min Rain = 0
KEA1 240420Z 19015KT 17/12 A2995 RMK A01 T01700119  RH  072%=      5-min Rain = 0
KEA1 240421Z 19013KT 17/12 A2995 RMK A01 T01680119  RH  073%=      5-min Rain = 0
KEA1 240422Z 20010KT 17/12 A2995 RMK A01 T01660119  RH  074%=      5-min Rain = 0
KEA1 240423Z 20011KT 17/12 A2995 RMK A01 T01650120  RH  074%=      5-min Rain = 0
KEA1 240424Z 20009KT 17/12 A2995 RMK A01 T01650120  RH  075%=      5-min Rain = 0
KEA1 240425Z 20009KT 16/12 A2995 RMK A01 T01640121  RH  076%=      5-min Rain = 0
KEA1 240426Z 21009KT 16/12 A2995 RMK A01 T01640122  RH  076%=      5-min Rain = 0
KEA1 240427Z 21009KT 16/12 A2995 RMK A01 T01640123  RH  076%=      5-min Rain = 0
KEA1 240428Z 20009KT 17/12 A2995 RMK A01 T01650124  RH  077%=      5-min Rain = 0
KEA1 240429Z 19010KT 17/13 A2995 RMK A01 T01650125  RH  077%=      5-min Rain = 0
KEA1 240430Z 19008KT 17/13 A2996 RMK A01 T01650126  RH  078%=      5-min Rain = 0
KEA1 240431Z 19008KT 17/13 A2996 RMK A01 T01650127  RH  078%=      5-min Rain = 0
KEA1 240432Z 20007KT 16/13 A2996 RMK A01 T01640127  RH  079%=      5-min Rain = 0
KEA1 240433Z 20007KT 16/13 A2995 RMK A01 T01640128  RH  079%=      5-min Rain = 0
KEA1 240434Z 20009KT 16/13 A2996 RMK A01 T01640128  RH  079%=      5-min Rain = 0
KEA1 240435Z 20008KT 16/13 A2996 RMK A01 T01630128  RH  080%=      5-min Rain = 0
KEA1 240436Z 21008KT 16/13 A2996 RMK A01 T01640129  RH  080%=      5-min Rain = 0
KEA1 240437Z 21008KT 16/13 A2996 RMK A01 T01630130  RH  080%=      5-min Rain = 0
KEA1 240438Z 21008KT 16/13 A2996 RMK A01 T01640131  RH  081%=      5-min Rain = 0
KEA1 240439Z 21009KT 16/13 A2997 RMK A01 T01640131  RH  081%=      5-min Rain = 0
KEA1 240440Z 21008KT 16/13 A2997 RMK A01 T01640132  RH  081%=      5-min Rain = 0
KEA1 240441Z 21008KT 17/13 A2997 RMK A01 T01650133  RH  081%=      5-min Rain = 0
KEA1 240442Z 21006KT 17/13 A2997 RMK A01 T01660134  RH  081%=      5-min Rain = 0
KEA1 240443Z 21006KT 17/13 A2997 RMK A01 T01660134  RH  081%=      5-min Rain = 0
KEA1 240444Z 22005KT 17/14 A2997 RMK A01 T01660135  RH  082%=      5-min Rain = 0
KEA1 240445Z 22005KT 17/14 A2997 RMK A01 T01660136  RH  082%=      5-min Rain = 0
KEA1 240446Z 22005KT 17/14 A2997 RMK A01 T01660136  RH  083%=      5-min Rain = 0
KEA1 240447Z 22006KT 17/14 A2997 RMK A01 T01670137  RH  083%=      5-min Rain = 0
KEA1 240448Z 21006KT 17/14 A2997 RMK A01 T01660137  RH  083%=      5-min Rain = 0
KEA1 240449Z 22004KT 17/14 A2997 RMK A01 T01660138  RH  083%=      5-min Rain = 0
KEA1 240450Z 20006KT 17/14 A2996 RMK A01 T01660138  RH  084%=      5-min Rain = 0
KEA1 240451Z 21005KT 17/14 A2996 RMK A01 T01650139  RH  084%=      5-min Rain = 0
KEA1 240452Z 23006KT 17/14 A2996 RMK A01 T01660139  RH  084%=      5-min Rain = 0
KEA1 240453Z 23005KT 17/14 A2996 RMK A01 T01660140  RH  084%=      5-min Rain = 0
KEA1 240454Z 21008KT 17/14 A2996 RMK A01 T01660140  RH  084%=      5-min Rain = 0
KEA1 240455Z 22009KT 17/14 A2995 RMK A01 T01670141  RH  084%=      5-min Rain = 0
KEA1 240456Z 24005KT 17/14 A2995 RMK A01 T01670139  RH  084%=      5-min Rain = 0
KEA1 240457Z 21007KT 17/14 A2995 RMK A01 T01670140  RH  084%=      5-min Rain = 0
KEA1 240458Z 21006KT 17/14 A2995 RMK A01 T01670141  RH  084%=      5-min Rain = 0
KEA1 240459Z 21007KT 17/14 A2995 RMK A01 T01680141  RH  084%=      5-min Rain = 0

Page generated in 0.1243 seconds.